<?xml version="1.0" encoding="UTF-8" standalone="no" ?>
<gpx xmlns="http://www.topografix.com/GPX/1/1" xmlns:xsi="http://www.w3.org/2001/XMLSchema-instance" xsi:schemaLocation="http://www.topografix.com/GPX/1/1 http://www.topografix.com/GPX/1/1/gpx.xsd" version="1.1" creator="VisuGPX - https://www.visugpx.com">
  <metadata>
    <name>vriange</name>
    <desc><![CDATA[Rando inédite]]></desc>
  </metadata>
  <trk>
    <name><![CDATA[vriange]]></name>
    <trkseg>
      <trkpt lat="47.18055" lon="5.58189">
        <ele>191</ele>
        <time>2012-04-05T13:52:59Z</time>
      </trkpt>
      <trkpt lat="47.18055" lon="5.58193">
        <ele>194</ele>
        <time>2012-04-05T13:53:17Z</time>
      </trkpt>
      <trkpt lat="47.18055" lon="5.58193">
        <ele>198</ele>
        <time>2012-04-05T13:53:20Z</time>
      </trkpt>
      <trkpt lat="47.18056" lon="5.58191">
        <ele>202</ele>
        <time>2012-04-05T13:53:23Z</time>
      </trkpt>
      <trkpt lat="47.18056" lon="5.58191">
        <ele>207</ele>
        <time>2012-04-05T13:53:27Z</time>
      </trkpt>
      <trkpt lat="47.18056" lon="5.58191">
        <ele>206</ele>
        <time>2012-04-05T13:53:28Z</time>
      </trkpt>
      <trkpt lat="47.18054" lon="5.58192">
        <ele>210</ele>
        <time>2012-04-05T13:53:32Z</time>
      </trkpt>
      <trkpt lat="47.18055" lon="5.58191">
        <ele>211</ele>
        <time>2012-04-05T13:53:34Z</time>
      </trkpt>
      <trkpt lat="47.18055" lon="5.58191">
        <ele>215</ele>
        <time>2012-04-05T13:53:38Z</time>
      </trkpt>
      <trkpt lat="47.18055" lon="5.58193">
        <ele>218</ele>
        <time>2012-04-05T13:53:44Z</time>
      </trkpt>
      <trkpt lat="47.18055" lon="5.58194">
        <ele>221</ele>
        <time>2012-04-05T13:53:50Z</time>
      </trkpt>
      <trkpt lat="47.18055" lon="5.58194">
        <ele>222</ele>
        <time>2012-04-05T13:53:51Z</time>
      </trkpt>
      <trkpt lat="47.18054" lon="5.58195">
        <ele>225</ele>
        <time>2012-04-05T13:53:57Z</time>
      </trkpt>
      <trkpt lat="47.18053" lon="5.58197">
        <ele>224</ele>
        <time>2012-04-05T13:54:08Z</time>
      </trkpt>
      <trkpt lat="47.18052" lon="5.58198">
        <ele>227</ele>
        <time>2012-04-05T13:54:10Z</time>
      </trkpt>
      <trkpt lat="47.18051" lon="5.582">
        <ele>231</ele>
        <time>2012-04-05T13:54:25Z</time>
      </trkpt>
      <trkpt lat="47.18045" lon="5.58203">
        <ele>233</ele>
        <time>2012-04-05T13:54:45Z</time>
      </trkpt>
      <trkpt lat="47.18045" lon="5.58204">
        <ele>233</ele>
        <time>2012-04-05T13:55:53Z</time>
      </trkpt>
      <trkpt lat="47.18044" lon="5.58202">
        <ele>233</ele>
        <time>2012-04-05T13:56:21Z</time>
      </trkpt>
      <trkpt lat="47.18041" lon="5.58206">
        <ele>233</ele>
        <time>2012-04-05T13:56:42Z</time>
      </trkpt>
      <trkpt lat="47.18043" lon="5.5821">
        <ele>233</ele>
        <time>2012-04-05T13:56:53Z</time>
      </trkpt>
      <trkpt lat="47.18046" lon="5.58215">
        <ele>233</ele>
        <time>2012-04-05T13:57:01Z</time>
      </trkpt>
      <trkpt lat="47.18048" lon="5.58221">
        <ele>233</ele>
        <time>2012-04-05T13:57:05Z</time>
      </trkpt>
      <trkpt lat="47.18057" lon="5.58239">
        <ele>233</ele>
        <time>2012-04-05T13:57:19Z</time>
      </trkpt>
      <trkpt lat="47.18059" lon="5.58247">
        <ele>232</ele>
        <time>2012-04-05T13:57:24Z</time>
      </trkpt>
      <trkpt lat="47.18064" lon="5.58256">
        <ele>232</ele>
        <time>2012-04-05T13:57:30Z</time>
      </trkpt>
      <trkpt lat="47.18066" lon="5.58258">
        <ele>232</ele>
        <time>2012-04-05T13:57:32Z</time>
      </trkpt>
      <trkpt lat="47.18072" lon="5.58277">
        <ele>232</ele>
        <time>2012-04-05T13:57:43Z</time>
      </trkpt>
      <trkpt lat="47.18078" lon="5.58286">
        <ele>231</ele>
        <time>2012-04-05T13:57:49Z</time>
      </trkpt>
      <trkpt lat="47.18078" lon="5.58292">
        <ele>231</ele>
        <time>2012-04-05T13:57:52Z</time>
      </trkpt>
      <trkpt lat="47.18084" lon="5.58304">
        <ele>231</ele>
        <time>2012-04-05T13:58:01Z</time>
      </trkpt>
      <trkpt lat="47.1809" lon="5.583">
        <ele>232</ele>
        <time>2012-04-05T13:58:05Z</time>
      </trkpt>
      <trkpt lat="47.18102" lon="5.58276">
        <ele>234</ele>
        <time>2012-04-05T13:58:23Z</time>
      </trkpt>
      <trkpt lat="47.18116" lon="5.5825">
        <ele>236</ele>
        <time>2012-04-05T13:58:42Z</time>
      </trkpt>
      <trkpt lat="47.18132" lon="5.58218">
        <ele>239</ele>
        <time>2012-04-05T13:59:03Z</time>
      </trkpt>
      <trkpt lat="47.18144" lon="5.58195">
        <ele>240</ele>
        <time>2012-04-05T13:59:19Z</time>
      </trkpt>
      <trkpt lat="47.18159" lon="5.58169">
        <ele>240</ele>
        <time>2012-04-05T13:59:38Z</time>
      </trkpt>
      <trkpt lat="47.18175" lon="5.58136">
        <ele>241</ele>
        <time>2012-04-05T14:00:00Z</time>
      </trkpt>
      <trkpt lat="47.1819" lon="5.58107">
        <ele>242</ele>
        <time>2012-04-05T14:00:19Z</time>
      </trkpt>
      <trkpt lat="47.18211" lon="5.58082">
        <ele>243</ele>
        <time>2012-04-05T14:00:42Z</time>
      </trkpt>
      <trkpt lat="47.18235" lon="5.58057">
        <ele>244</ele>
        <time>2012-04-05T14:01:05Z</time>
      </trkpt>
      <trkpt lat="47.18256" lon="5.58037">
        <ele>244</ele>
        <time>2012-04-05T14:01:24Z</time>
      </trkpt>
      <trkpt lat="47.18281" lon="5.58019">
        <ele>245</ele>
        <time>2012-04-05T14:01:46Z</time>
      </trkpt>
      <trkpt lat="47.183" lon="5.57993">
        <ele>246</ele>
        <time>2012-04-05T14:02:07Z</time>
      </trkpt>
      <trkpt lat="47.18306" lon="5.57983">
        <ele>246</ele>
        <time>2012-04-05T14:02:14Z</time>
      </trkpt>
      <trkpt lat="47.18317" lon="5.57966">
        <ele>247</ele>
        <time>2012-04-05T14:02:27Z</time>
      </trkpt>
      <trkpt lat="47.18331" lon="5.57931">
        <ele>250</ele>
        <time>2012-04-05T14:02:49Z</time>
      </trkpt>
      <trkpt lat="47.18343" lon="5.57904">
        <ele>252</ele>
        <time>2012-04-05T14:03:07Z</time>
      </trkpt>
      <trkpt lat="47.18348" lon="5.57888">
        <ele>253</ele>
        <time>2012-04-05T14:03:18Z</time>
      </trkpt>
      <trkpt lat="47.18357" lon="5.5787">
        <ele>255</ele>
        <time>2012-04-05T14:03:31Z</time>
      </trkpt>
      <trkpt lat="47.18365" lon="5.57851">
        <ele>256</ele>
        <time>2012-04-05T14:03:43Z</time>
      </trkpt>
      <trkpt lat="47.18373" lon="5.5783">
        <ele>257</ele>
        <time>2012-04-05T14:03:56Z</time>
      </trkpt>
      <trkpt lat="47.18382" lon="5.57791">
        <ele>260</ele>
        <time>2012-04-05T14:04:19Z</time>
      </trkpt>
      <trkpt lat="47.18377" lon="5.5776">
        <ele>260</ele>
        <time>2012-04-05T14:04:35Z</time>
      </trkpt>
      <trkpt lat="47.18377" lon="5.57756">
        <ele>260</ele>
        <time>2012-04-05T14:04:37Z</time>
      </trkpt>
      <trkpt lat="47.18376" lon="5.57735">
        <ele>261</ele>
        <time>2012-04-05T14:04:50Z</time>
      </trkpt>
      <trkpt lat="47.18373" lon="5.577">
        <ele>262</ele>
        <time>2012-04-05T14:05:08Z</time>
      </trkpt>
      <trkpt lat="47.18365" lon="5.57671">
        <ele>264</ele>
        <time>2012-04-05T14:05:27Z</time>
      </trkpt>
      <trkpt lat="47.18363" lon="5.57661">
        <ele>264</ele>
        <time>2012-04-05T14:05:34Z</time>
      </trkpt>
      <trkpt lat="47.18361" lon="5.5765">
        <ele>265</ele>
        <time>2012-04-05T14:05:42Z</time>
      </trkpt>
      <trkpt lat="47.18374" lon="5.57629">
        <ele>268</ele>
        <time>2012-04-05T14:06:01Z</time>
      </trkpt>
      <trkpt lat="47.18395" lon="5.57622">
        <ele>270</ele>
        <time>2012-04-05T14:06:22Z</time>
      </trkpt>
      <trkpt lat="47.18401" lon="5.57619">
        <ele>271</ele>
        <time>2012-04-05T14:06:27Z</time>
      </trkpt>
      <trkpt lat="47.18416" lon="5.57616">
        <ele>273</ele>
        <time>2012-04-05T14:06:43Z</time>
      </trkpt>
      <trkpt lat="47.18428" lon="5.57613">
        <ele>275</ele>
        <time>2012-04-05T14:06:56Z</time>
      </trkpt>
      <trkpt lat="47.18443" lon="5.57612">
        <ele>276</ele>
        <time>2012-04-05T14:07:12Z</time>
      </trkpt>
      <trkpt lat="47.18455" lon="5.57613">
        <ele>278</ele>
        <time>2012-04-05T14:07:27Z</time>
      </trkpt>
      <trkpt lat="47.18461" lon="5.57619">
        <ele>279</ele>
        <time>2012-04-05T14:07:41Z</time>
      </trkpt>
      <trkpt lat="47.18471" lon="5.57616">
        <ele>278</ele>
        <time>2012-04-05T14:08:02Z</time>
      </trkpt>
      <trkpt lat="47.18475" lon="5.57616">
        <ele>278</ele>
        <time>2012-04-05T14:08:05Z</time>
      </trkpt>
      <trkpt lat="47.18478" lon="5.57615">
        <ele>278</ele>
        <time>2012-04-05T14:08:07Z</time>
      </trkpt>
      <trkpt lat="47.18483" lon="5.57614">
        <ele>278</ele>
        <time>2012-04-05T14:08:12Z</time>
      </trkpt>
      <trkpt lat="47.18485" lon="5.57612">
        <ele>278</ele>
        <time>2012-04-05T14:08:14Z</time>
      </trkpt>
      <trkpt lat="47.1849" lon="5.57611">
        <ele>278</ele>
        <time>2012-04-05T14:08:18Z</time>
      </trkpt>
      <trkpt lat="47.18497" lon="5.57609">
        <ele>278</ele>
        <time>2012-04-05T14:08:24Z</time>
      </trkpt>
      <trkpt lat="47.18513" lon="5.57602">
        <ele>277</ele>
        <time>2012-04-05T14:08:39Z</time>
      </trkpt>
      <trkpt lat="47.18531" lon="5.57593">
        <ele>277</ele>
        <time>2012-04-05T14:08:54Z</time>
      </trkpt>
      <trkpt lat="47.18536" lon="5.57589">
        <ele>277</ele>
        <time>2012-04-05T14:08:58Z</time>
      </trkpt>
      <trkpt lat="47.18552" lon="5.57588">
        <ele>277</ele>
        <time>2012-04-05T14:09:09Z</time>
      </trkpt>
      <trkpt lat="47.18568" lon="5.57589">
        <ele>277</ele>
        <time>2012-04-05T14:09:25Z</time>
      </trkpt>
      <trkpt lat="47.18579" lon="5.57586">
        <ele>277</ele>
        <time>2012-04-05T14:09:44Z</time>
      </trkpt>
      <trkpt lat="47.1858" lon="5.5758">
        <ele>276</ele>
        <time>2012-04-05T14:10:15Z</time>
      </trkpt>
      <trkpt lat="47.18582" lon="5.57577">
        <ele>273</ele>
        <time>2012-04-05T14:10:27Z</time>
      </trkpt>
      <trkpt lat="47.18591" lon="5.57561">
        <ele>270</ele>
        <time>2012-04-05T14:10:43Z</time>
      </trkpt>
      <trkpt lat="47.18597" lon="5.57563">
        <ele>270</ele>
        <time>2012-04-05T14:11:01Z</time>
      </trkpt>
      <trkpt lat="47.18596" lon="5.57562">
        <ele>272</ele>
        <time>2012-04-05T14:11:16Z</time>
      </trkpt>
      <trkpt lat="47.18603" lon="5.57547">
        <ele>274</ele>
        <time>2012-04-05T14:11:26Z</time>
      </trkpt>
      <trkpt lat="47.18607" lon="5.5754">
        <ele>276</ele>
        <time>2012-04-05T14:11:43Z</time>
      </trkpt>
      <trkpt lat="47.18608" lon="5.57547">
        <ele>276</ele>
        <time>2012-04-05T14:12:57Z</time>
      </trkpt>
      <trkpt lat="47.18594" lon="5.57534">
        <ele>279</ele>
        <time>2012-04-05T14:14:19Z</time>
      </trkpt>
      <trkpt lat="47.18579" lon="5.57532">
        <ele>280</ele>
        <time>2012-04-05T14:14:35Z</time>
      </trkpt>
      <trkpt lat="47.18571" lon="5.5751">
        <ele>281</ele>
        <time>2012-04-05T14:14:49Z</time>
      </trkpt>
      <trkpt lat="47.18554" lon="5.57491">
        <ele>280</ele>
        <time>2012-04-05T14:15:06Z</time>
      </trkpt>
      <trkpt lat="47.18538" lon="5.57475">
        <ele>280</ele>
        <time>2012-04-05T14:15:21Z</time>
      </trkpt>
      <trkpt lat="47.18528" lon="5.57458">
        <ele>280</ele>
        <time>2012-04-05T14:15:35Z</time>
      </trkpt>
      <trkpt lat="47.18526" lon="5.57433">
        <ele>280</ele>
        <time>2012-04-05T14:15:47Z</time>
      </trkpt>
      <trkpt lat="47.18517" lon="5.57412">
        <ele>281</ele>
        <time>2012-04-05T14:16:01Z</time>
      </trkpt>
      <trkpt lat="47.18511" lon="5.57386">
        <ele>283</ele>
        <time>2012-04-05T14:16:19Z</time>
      </trkpt>
      <trkpt lat="47.18504" lon="5.57369">
        <ele>286</ele>
        <time>2012-04-05T14:16:34Z</time>
      </trkpt>
      <trkpt lat="47.18499" lon="5.57344">
        <ele>288</ele>
        <time>2012-04-05T14:16:52Z</time>
      </trkpt>
      <trkpt lat="47.18496" lon="5.57317">
        <ele>289</ele>
        <time>2012-04-05T14:17:07Z</time>
      </trkpt>
      <trkpt lat="47.1849" lon="5.57306">
        <ele>289</ele>
        <time>2012-04-05T14:17:16Z</time>
      </trkpt>
      <trkpt lat="47.18484" lon="5.57283">
        <ele>290</ele>
        <time>2012-04-05T14:17:29Z</time>
      </trkpt>
      <trkpt lat="47.18484" lon="5.57278">
        <ele>290</ele>
        <time>2012-04-05T14:17:32Z</time>
      </trkpt>
      <trkpt lat="47.18478" lon="5.57251">
        <ele>292</ele>
        <time>2012-04-05T14:17:49Z</time>
      </trkpt>
      <trkpt lat="47.18471" lon="5.57236">
        <ele>293</ele>
        <time>2012-04-05T14:18:00Z</time>
      </trkpt>
      <trkpt lat="47.18472" lon="5.57234">
        <ele>293</ele>
        <time>2012-04-05T14:18:01Z</time>
      </trkpt>
      <trkpt lat="47.18467" lon="5.5721">
        <ele>294</ele>
        <time>2012-04-05T14:18:16Z</time>
      </trkpt>
      <trkpt lat="47.1846" lon="5.57191">
        <ele>296</ele>
        <time>2012-04-05T14:18:30Z</time>
      </trkpt>
      <trkpt lat="47.18454" lon="5.57177">
        <ele>296</ele>
        <time>2012-04-05T14:18:41Z</time>
      </trkpt>
      <trkpt lat="47.18446" lon="5.57158">
        <ele>297</ele>
        <time>2012-04-05T14:18:55Z</time>
      </trkpt>
      <trkpt lat="47.18439" lon="5.57133">
        <ele>298</ele>
        <time>2012-04-05T14:19:12Z</time>
      </trkpt>
      <trkpt lat="47.18433" lon="5.57098">
        <ele>299</ele>
        <time>2012-04-05T14:19:35Z</time>
      </trkpt>
      <trkpt lat="47.1842" lon="5.57078">
        <ele>299</ele>
        <time>2012-04-05T14:19:49Z</time>
      </trkpt>
      <trkpt lat="47.18416" lon="5.57062">
        <ele>299</ele>
        <time>2012-04-05T14:19:57Z</time>
      </trkpt>
      <trkpt lat="47.18411" lon="5.57033">
        <ele>299</ele>
        <time>2012-04-05T14:20:17Z</time>
      </trkpt>
      <trkpt lat="47.18412" lon="5.57017">
        <ele>299</ele>
        <time>2012-04-05T14:20:33Z</time>
      </trkpt>
      <trkpt lat="47.18405" lon="5.57017">
        <ele>299</ele>
        <time>2012-04-05T14:20:50Z</time>
      </trkpt>
      <trkpt lat="47.18394" lon="5.57039">
        <ele>301</ele>
        <time>2012-04-05T14:21:12Z</time>
      </trkpt>
      <trkpt lat="47.1839" lon="5.57045">
        <ele>301</ele>
        <time>2012-04-05T14:21:16Z</time>
      </trkpt>
      <trkpt lat="47.18382" lon="5.57074">
        <ele>299</ele>
        <time>2012-04-05T14:21:36Z</time>
      </trkpt>
      <trkpt lat="47.18358" lon="5.57093">
        <ele>301</ele>
        <time>2012-04-05T14:21:54Z</time>
      </trkpt>
      <trkpt lat="47.18357" lon="5.57093">
        <ele>301</ele>
        <time>2012-04-05T14:21:55Z</time>
      </trkpt>
      <trkpt lat="47.18352" lon="5.57097">
        <ele>302</ele>
        <time>2012-04-05T14:21:59Z</time>
      </trkpt>
      <trkpt lat="47.18349" lon="5.57098">
        <ele>302</ele>
        <time>2012-04-05T14:22:01Z</time>
      </trkpt>
      <trkpt lat="47.18346" lon="5.57104">
        <ele>303</ele>
        <time>2012-04-05T14:22:12Z</time>
      </trkpt>
      <trkpt lat="47.18342" lon="5.57114">
        <ele>303</ele>
        <time>2012-04-05T14:22:20Z</time>
      </trkpt>
      <trkpt lat="47.18334" lon="5.57122">
        <ele>304</ele>
        <time>2012-04-05T14:22:29Z</time>
      </trkpt>
      <trkpt lat="47.18318" lon="5.57152">
        <ele>307</ele>
        <time>2012-04-05T14:22:52Z</time>
      </trkpt>
      <trkpt lat="47.18307" lon="5.5717">
        <ele>308</ele>
        <time>2012-04-05T14:23:09Z</time>
      </trkpt>
      <trkpt lat="47.18284" lon="5.57193">
        <ele>311</ele>
        <time>2012-04-05T14:23:30Z</time>
      </trkpt>
      <trkpt lat="47.18273" lon="5.57202">
        <ele>313</ele>
        <time>2012-04-05T14:23:45Z</time>
      </trkpt>
      <trkpt lat="47.18267" lon="5.57193">
        <ele>314</ele>
        <time>2012-04-05T14:24:00Z</time>
      </trkpt>
      <trkpt lat="47.18276" lon="5.57168">
        <ele>317</ele>
        <time>2012-04-05T14:24:22Z</time>
      </trkpt>
      <trkpt lat="47.18277" lon="5.57144">
        <ele>319</ele>
        <time>2012-04-05T14:24:41Z</time>
      </trkpt>
      <trkpt lat="47.18281" lon="5.57126">
        <ele>322</ele>
        <time>2012-04-05T14:24:57Z</time>
      </trkpt>
      <trkpt lat="47.18284" lon="5.57105">
        <ele>326</ele>
        <time>2012-04-05T14:25:13Z</time>
      </trkpt>
      <trkpt lat="47.18292" lon="5.57086">
        <ele>328</ele>
        <time>2012-04-05T14:25:30Z</time>
      </trkpt>
      <trkpt lat="47.18292" lon="5.57065">
        <ele>332</ele>
        <time>2012-04-05T14:25:48Z</time>
      </trkpt>
      <trkpt lat="47.18293" lon="5.57047">
        <ele>334</ele>
        <time>2012-04-05T14:26:03Z</time>
      </trkpt>
      <trkpt lat="47.18286" lon="5.57051">
        <ele>337</ele>
        <time>2012-04-05T14:26:18Z</time>
      </trkpt>
      <trkpt lat="47.18276" lon="5.57062">
        <ele>339</ele>
        <time>2012-04-05T14:26:34Z</time>
      </trkpt>
      <trkpt lat="47.18266" lon="5.57033">
        <ele>341</ele>
        <time>2012-04-05T14:26:51Z</time>
      </trkpt>
      <trkpt lat="47.18263" lon="5.5703">
        <ele>342</ele>
        <time>2012-04-05T14:26:55Z</time>
      </trkpt>
      <trkpt lat="47.18263" lon="5.57028">
        <ele>342</ele>
        <time>2012-04-05T14:26:57Z</time>
      </trkpt>
      <trkpt lat="47.18258" lon="5.57009">
        <ele>344</ele>
        <time>2012-04-05T14:27:10Z</time>
      </trkpt>
      <trkpt lat="47.18258" lon="5.57008">
        <ele>344</ele>
        <time>2012-04-05T14:27:11Z</time>
      </trkpt>
      <trkpt lat="47.18252" lon="5.56993">
        <ele>346</ele>
        <time>2012-04-05T14:27:24Z</time>
      </trkpt>
      <trkpt lat="47.18251" lon="5.56976">
        <ele>347</ele>
        <time>2012-04-05T14:27:36Z</time>
      </trkpt>
      <trkpt lat="47.1825" lon="5.56972">
        <ele>348</ele>
        <time>2012-04-05T14:27:39Z</time>
      </trkpt>
      <trkpt lat="47.18241" lon="5.5696">
        <ele>349</ele>
        <time>2012-04-05T14:27:49Z</time>
      </trkpt>
      <trkpt lat="47.18233" lon="5.56949">
        <ele>351</ele>
        <time>2012-04-05T14:27:59Z</time>
      </trkpt>
      <trkpt lat="47.1823" lon="5.56945">
        <ele>351</ele>
        <time>2012-04-05T14:28:02Z</time>
      </trkpt>
      <trkpt lat="47.1822" lon="5.56925">
        <ele>352</ele>
        <time>2012-04-05T14:28:15Z</time>
      </trkpt>
      <trkpt lat="47.18208" lon="5.56905">
        <ele>354</ele>
        <time>2012-04-05T14:28:33Z</time>
      </trkpt>
      <trkpt lat="47.18203" lon="5.56882">
        <ele>356</ele>
        <time>2012-04-05T14:28:49Z</time>
      </trkpt>
      <trkpt lat="47.18197" lon="5.5686">
        <ele>358</ele>
        <time>2012-04-05T14:29:03Z</time>
      </trkpt>
      <trkpt lat="47.1819" lon="5.5683">
        <ele>359</ele>
        <time>2012-04-05T14:29:21Z</time>
      </trkpt>
      <trkpt lat="47.18181" lon="5.56809">
        <ele>360</ele>
        <time>2012-04-05T14:29:35Z</time>
      </trkpt>
      <trkpt lat="47.18169" lon="5.56783">
        <ele>361</ele>
        <time>2012-04-05T14:29:52Z</time>
      </trkpt>
      <trkpt lat="47.18159" lon="5.56756">
        <ele>361</ele>
        <time>2012-04-05T14:30:10Z</time>
      </trkpt>
      <trkpt lat="47.18154" lon="5.56737">
        <ele>361</ele>
        <time>2012-04-05T14:30:22Z</time>
      </trkpt>
      <trkpt lat="47.1815" lon="5.56726">
        <ele>361</ele>
        <time>2012-04-05T14:30:30Z</time>
      </trkpt>
      <trkpt lat="47.18149" lon="5.56718">
        <ele>361</ele>
        <time>2012-04-05T14:30:35Z</time>
      </trkpt>
      <trkpt lat="47.18143" lon="5.56694">
        <ele>361</ele>
        <time>2012-04-05T14:30:49Z</time>
      </trkpt>
      <trkpt lat="47.1814" lon="5.56674">
        <ele>361</ele>
        <time>2012-04-05T14:30:59Z</time>
      </trkpt>
      <trkpt lat="47.18134" lon="5.56642">
        <ele>360</ele>
        <time>2012-04-05T14:31:17Z</time>
      </trkpt>
      <trkpt lat="47.18135" lon="5.56614">
        <ele>359</ele>
        <time>2012-04-05T14:31:34Z</time>
      </trkpt>
      <trkpt lat="47.1813" lon="5.56588">
        <ele>357</ele>
        <time>2012-04-05T14:31:49Z</time>
      </trkpt>
      <trkpt lat="47.18131" lon="5.56565">
        <ele>356</ele>
        <time>2012-04-05T14:32:01Z</time>
      </trkpt>
      <trkpt lat="47.18131" lon="5.56544">
        <ele>355</ele>
        <time>2012-04-05T14:32:13Z</time>
      </trkpt>
      <trkpt lat="47.1812" lon="5.5651">
        <ele>353</ele>
        <time>2012-04-05T14:32:33Z</time>
      </trkpt>
      <trkpt lat="47.18119" lon="5.56506">
        <ele>352</ele>
        <time>2012-04-05T14:32:36Z</time>
      </trkpt>
      <trkpt lat="47.18117" lon="5.56499">
        <ele>352</ele>
        <time>2012-04-05T14:32:39Z</time>
      </trkpt>
      <trkpt lat="47.18111" lon="5.56463">
        <ele>350</ele>
        <time>2012-04-05T14:32:58Z</time>
      </trkpt>
      <trkpt lat="47.18112" lon="5.56429">
        <ele>350</ele>
        <time>2012-04-05T14:33:17Z</time>
      </trkpt>
      <trkpt lat="47.18111" lon="5.56423">
        <ele>350</ele>
        <time>2012-04-05T14:33:20Z</time>
      </trkpt>
      <trkpt lat="47.18114" lon="5.56418">
        <ele>350</ele>
        <time>2012-04-05T14:33:23Z</time>
      </trkpt>
      <trkpt lat="47.18112" lon="5.56398">
        <ele>349</ele>
        <time>2012-04-05T14:33:35Z</time>
      </trkpt>
      <trkpt lat="47.18108" lon="5.56374">
        <ele>349</ele>
        <time>2012-04-05T14:33:48Z</time>
      </trkpt>
      <trkpt lat="47.18108" lon="5.56356">
        <ele>349</ele>
        <time>2012-04-05T14:33:58Z</time>
      </trkpt>
      <trkpt lat="47.18113" lon="5.56338">
        <ele>349</ele>
        <time>2012-04-05T14:34:11Z</time>
      </trkpt>
      <trkpt lat="47.18115" lon="5.56313">
        <ele>349</ele>
        <time>2012-04-05T14:34:24Z</time>
      </trkpt>
      <trkpt lat="47.18121" lon="5.56293">
        <ele>350</ele>
        <time>2012-04-05T14:34:37Z</time>
      </trkpt>
      <trkpt lat="47.18132" lon="5.56287">
        <ele>350</ele>
        <time>2012-04-05T14:34:46Z</time>
      </trkpt>
      <trkpt lat="47.18149" lon="5.56276">
        <ele>350</ele>
        <time>2012-04-05T14:35:02Z</time>
      </trkpt>
      <trkpt lat="47.18174" lon="5.56264">
        <ele>350</ele>
        <time>2012-04-05T14:35:25Z</time>
      </trkpt>
      <trkpt lat="47.18189" lon="5.56256">
        <ele>351</ele>
        <time>2012-04-05T14:35:38Z</time>
      </trkpt>
      <trkpt lat="47.18202" lon="5.56245">
        <ele>351</ele>
        <time>2012-04-05T14:35:51Z</time>
      </trkpt>
      <trkpt lat="47.18221" lon="5.56227">
        <ele>353</ele>
        <time>2012-04-05T14:36:12Z</time>
      </trkpt>
      <trkpt lat="47.18233" lon="5.56215">
        <ele>354</ele>
        <time>2012-04-05T14:36:28Z</time>
      </trkpt>
      <trkpt lat="47.18252" lon="5.56194">
        <ele>357</ele>
        <time>2012-04-05T14:36:48Z</time>
      </trkpt>
      <trkpt lat="47.18268" lon="5.56181">
        <ele>358</ele>
        <time>2012-04-05T14:37:02Z</time>
      </trkpt>
      <trkpt lat="47.18283" lon="5.56161">
        <ele>358</ele>
        <time>2012-04-05T14:37:23Z</time>
      </trkpt>
      <trkpt lat="47.18297" lon="5.56136">
        <ele>358</ele>
        <time>2012-04-05T14:37:41Z</time>
      </trkpt>
      <trkpt lat="47.18305" lon="5.56117">
        <ele>357</ele>
        <time>2012-04-05T14:37:55Z</time>
      </trkpt>
      <trkpt lat="47.18317" lon="5.56088">
        <ele>358</ele>
        <time>2012-04-05T14:38:13Z</time>
      </trkpt>
      <trkpt lat="47.18321" lon="5.56069">
        <ele>358</ele>
        <time>2012-04-05T14:38:25Z</time>
      </trkpt>
      <trkpt lat="47.18336" lon="5.56048">
        <ele>359</ele>
        <time>2012-04-05T14:38:40Z</time>
      </trkpt>
      <trkpt lat="47.18351" lon="5.5603">
        <ele>360</ele>
        <time>2012-04-05T14:38:56Z</time>
      </trkpt>
      <trkpt lat="47.18375" lon="5.56008">
        <ele>362</ele>
        <time>2012-04-05T14:39:19Z</time>
      </trkpt>
      <trkpt lat="47.18383" lon="5.55994">
        <ele>363</ele>
        <time>2012-04-05T14:39:30Z</time>
      </trkpt>
      <trkpt lat="47.18388" lon="5.55971">
        <ele>364</ele>
        <time>2012-04-05T14:39:43Z</time>
      </trkpt>
      <trkpt lat="47.18391" lon="5.55965">
        <ele>364</ele>
        <time>2012-04-05T14:39:47Z</time>
      </trkpt>
      <trkpt lat="47.18395" lon="5.55959">
        <ele>364</ele>
        <time>2012-04-05T14:39:52Z</time>
      </trkpt>
      <trkpt lat="47.18395" lon="5.55939">
        <ele>364</ele>
        <time>2012-04-05T14:40:05Z</time>
      </trkpt>
      <trkpt lat="47.18394" lon="5.55936">
        <ele>364</ele>
        <time>2012-04-05T14:40:07Z</time>
      </trkpt>
      <trkpt lat="47.18395" lon="5.55906">
        <ele>364</ele>
        <time>2012-04-05T14:40:25Z</time>
      </trkpt>
      <trkpt lat="47.18393" lon="5.559">
        <ele>364</ele>
        <time>2012-04-05T14:40:52Z</time>
      </trkpt>
      <trkpt lat="47.18393" lon="5.55897">
        <ele>364</ele>
        <time>2012-04-05T14:42:48Z</time>
      </trkpt>
      <trkpt lat="47.18418" lon="5.55913">
        <ele>366</ele>
        <time>2012-04-05T14:46:29Z</time>
      </trkpt>
      <trkpt lat="47.18438" lon="5.55935">
        <ele>367</ele>
        <time>2012-04-05T14:46:48Z</time>
      </trkpt>
      <trkpt lat="47.18456" lon="5.55955">
        <ele>367</ele>
        <time>2012-04-05T14:47:09Z</time>
      </trkpt>
      <trkpt lat="47.18474" lon="5.55972">
        <ele>368</ele>
        <time>2012-04-05T14:47:23Z</time>
      </trkpt>
      <trkpt lat="47.18483" lon="5.55986">
        <ele>368</ele>
        <time>2012-04-05T14:47:37Z</time>
      </trkpt>
      <trkpt lat="47.18497" lon="5.56003">
        <ele>368</ele>
        <time>2012-04-05T14:47:54Z</time>
      </trkpt>
      <trkpt lat="47.18521" lon="5.56024">
        <ele>368</ele>
        <time>2012-04-05T14:48:14Z</time>
      </trkpt>
      <trkpt lat="47.18532" lon="5.56036">
        <ele>367</ele>
        <time>2012-04-05T14:48:25Z</time>
      </trkpt>
      <trkpt lat="47.18547" lon="5.56048">
        <ele>366</ele>
        <time>2012-04-05T14:48:38Z</time>
      </trkpt>
      <trkpt lat="47.18557" lon="5.56069">
        <ele>364</ele>
        <time>2012-04-05T14:48:53Z</time>
      </trkpt>
      <trkpt lat="47.18578" lon="5.5609">
        <ele>362</ele>
        <time>2012-04-05T14:49:13Z</time>
      </trkpt>
      <trkpt lat="47.18579" lon="5.56092">
        <ele>362</ele>
        <time>2012-04-05T14:49:14Z</time>
      </trkpt>
      <trkpt lat="47.18582" lon="5.56095">
        <ele>362</ele>
        <time>2012-04-05T14:49:16Z</time>
      </trkpt>
      <trkpt lat="47.18596" lon="5.56103">
        <ele>360</ele>
        <time>2012-04-05T14:49:26Z</time>
      </trkpt>
      <trkpt lat="47.18601" lon="5.56114">
        <ele>358</ele>
        <time>2012-04-05T14:49:37Z</time>
      </trkpt>
      <trkpt lat="47.18611" lon="5.56133">
        <ele>356</ele>
        <time>2012-04-05T14:49:54Z</time>
      </trkpt>
      <trkpt lat="47.18628" lon="5.56144">
        <ele>355</ele>
        <time>2012-04-05T14:50:12Z</time>
      </trkpt>
      <trkpt lat="47.18631" lon="5.5615">
        <ele>352</ele>
        <time>2012-04-05T14:50:27Z</time>
      </trkpt>
      <trkpt lat="47.1864" lon="5.56156">
        <ele>349</ele>
        <time>2012-04-05T14:50:41Z</time>
      </trkpt>
      <trkpt lat="47.18651" lon="5.56175">
        <ele>346</ele>
        <time>2012-04-05T14:50:59Z</time>
      </trkpt>
      <trkpt lat="47.18665" lon="5.56187">
        <ele>345</ele>
        <time>2012-04-05T14:51:25Z</time>
      </trkpt>
      <trkpt lat="47.18669" lon="5.56198">
        <ele>346</ele>
        <time>2012-04-05T14:51:42Z</time>
      </trkpt>
      <trkpt lat="47.1869" lon="5.56201">
        <ele>347</ele>
        <time>2012-04-05T14:52:01Z</time>
      </trkpt>
      <trkpt lat="47.18701" lon="5.56204">
        <ele>348</ele>
        <time>2012-04-05T14:52:14Z</time>
      </trkpt>
      <trkpt lat="47.18706" lon="5.56223">
        <ele>349</ele>
        <time>2012-04-05T14:52:28Z</time>
      </trkpt>
      <trkpt lat="47.18714" lon="5.5624">
        <ele>349</ele>
        <time>2012-04-05T14:52:45Z</time>
      </trkpt>
      <trkpt lat="47.18723" lon="5.56263">
        <ele>349</ele>
        <time>2012-04-05T14:53:01Z</time>
      </trkpt>
      <trkpt lat="47.18735" lon="5.56277">
        <ele>349</ele>
        <time>2012-04-05T14:53:18Z</time>
      </trkpt>
      <trkpt lat="47.1874" lon="5.56283">
        <ele>349</ele>
        <time>2012-04-05T14:53:23Z</time>
      </trkpt>
      <trkpt lat="47.18751" lon="5.56296">
        <ele>349</ele>
        <time>2012-04-05T14:53:43Z</time>
      </trkpt>
      <trkpt lat="47.18764" lon="5.56313">
        <ele>351</ele>
        <time>2012-04-05T14:54:00Z</time>
      </trkpt>
      <trkpt lat="47.18767" lon="5.56315">
        <ele>351</ele>
        <time>2012-04-05T14:54:03Z</time>
      </trkpt>
      <trkpt lat="47.18777" lon="5.56336">
        <ele>353</ele>
        <time>2012-04-05T14:54:22Z</time>
      </trkpt>
      <trkpt lat="47.1879" lon="5.56356">
        <ele>355</ele>
        <time>2012-04-05T14:54:40Z</time>
      </trkpt>
      <trkpt lat="47.18802" lon="5.56367">
        <ele>358</ele>
        <time>2012-04-05T14:54:55Z</time>
      </trkpt>
      <trkpt lat="47.18817" lon="5.56386">
        <ele>360</ele>
        <time>2012-04-05T14:55:15Z</time>
      </trkpt>
      <trkpt lat="47.18823" lon="5.564">
        <ele>362</ele>
        <time>2012-04-05T14:55:29Z</time>
      </trkpt>
      <trkpt lat="47.18834" lon="5.56416">
        <ele>363</ele>
        <time>2012-04-05T14:55:45Z</time>
      </trkpt>
      <trkpt lat="47.18843" lon="5.56438">
        <ele>364</ele>
        <time>2012-04-05T14:56:00Z</time>
      </trkpt>
      <trkpt lat="47.1885" lon="5.56452">
        <ele>365</ele>
        <time>2012-04-05T14:56:13Z</time>
      </trkpt>
      <trkpt lat="47.18851" lon="5.56456">
        <ele>366</ele>
        <time>2012-04-05T14:56:16Z</time>
      </trkpt>
      <trkpt lat="47.18851" lon="5.56458">
        <ele>366</ele>
        <time>2012-04-05T14:56:18Z</time>
      </trkpt>
      <trkpt lat="47.18853" lon="5.56467">
        <ele>367</ele>
        <time>2012-04-05T14:56:24Z</time>
      </trkpt>
      <trkpt lat="47.18863" lon="5.56479">
        <ele>367</ele>
        <time>2012-04-05T14:56:33Z</time>
      </trkpt>
      <trkpt lat="47.18865" lon="5.56485">
        <ele>367</ele>
        <time>2012-04-05T14:56:38Z</time>
      </trkpt>
      <trkpt lat="47.18873" lon="5.56502">
        <ele>368</ele>
        <time>2012-04-05T14:56:51Z</time>
      </trkpt>
      <trkpt lat="47.1888" lon="5.56511">
        <ele>368</ele>
        <time>2012-04-05T14:56:58Z</time>
      </trkpt>
      <trkpt lat="47.18891" lon="5.56526">
        <ele>369</ele>
        <time>2012-04-05T14:57:10Z</time>
      </trkpt>
      <trkpt lat="47.18895" lon="5.56537">
        <ele>370</ele>
        <time>2012-04-05T14:57:19Z</time>
      </trkpt>
      <trkpt lat="47.18895" lon="5.56539">
        <ele>370</ele>
        <time>2012-04-05T14:57:21Z</time>
      </trkpt>
      <trkpt lat="47.18899" lon="5.56546">
        <ele>370</ele>
        <time>2012-04-05T14:57:26Z</time>
      </trkpt>
      <trkpt lat="47.18908" lon="5.56565">
        <ele>371</ele>
        <time>2012-04-05T14:57:42Z</time>
      </trkpt>
      <trkpt lat="47.18927" lon="5.56587">
        <ele>372</ele>
        <time>2012-04-05T14:58:01Z</time>
      </trkpt>
      <trkpt lat="47.18933" lon="5.56601">
        <ele>374</ele>
        <time>2012-04-05T14:58:17Z</time>
      </trkpt>
      <trkpt lat="47.18943" lon="5.56625">
        <ele>375</ele>
        <time>2012-04-05T14:58:36Z</time>
      </trkpt>
      <trkpt lat="47.18957" lon="5.5665">
        <ele>376</ele>
        <time>2012-04-05T14:58:56Z</time>
      </trkpt>
      <trkpt lat="47.18959" lon="5.56653">
        <ele>377</ele>
        <time>2012-04-05T14:58:59Z</time>
      </trkpt>
      <trkpt lat="47.18961" lon="5.56662">
        <ele>377</ele>
        <time>2012-04-05T14:59:05Z</time>
      </trkpt>
      <trkpt lat="47.18965" lon="5.56677">
        <ele>378</ele>
        <time>2012-04-05T14:59:24Z</time>
      </trkpt>
      <trkpt lat="47.18968" lon="5.56683">
        <ele>378</ele>
        <time>2012-04-05T15:00:51Z</time>
      </trkpt>
      <trkpt lat="47.18971" lon="5.56693">
        <ele>378</ele>
        <time>2012-04-05T15:00:59Z</time>
      </trkpt>
      <trkpt lat="47.18973" lon="5.56698">
        <ele>379</ele>
        <time>2012-04-05T15:01:04Z</time>
      </trkpt>
      <trkpt lat="47.18981" lon="5.56729">
        <ele>379</ele>
        <time>2012-04-05T15:01:25Z</time>
      </trkpt>
      <trkpt lat="47.18982" lon="5.56731">
        <ele>379</ele>
        <time>2012-04-05T15:01:27Z</time>
      </trkpt>
      <trkpt lat="47.18993" lon="5.5676">
        <ele>380</ele>
        <time>2012-04-05T15:01:46Z</time>
      </trkpt>
      <trkpt lat="47.19006" lon="5.56787">
        <ele>379</ele>
        <time>2012-04-05T15:02:03Z</time>
      </trkpt>
      <trkpt lat="47.19008" lon="5.56793">
        <ele>379</ele>
        <time>2012-04-05T15:02:06Z</time>
      </trkpt>
      <trkpt lat="47.19018" lon="5.56812">
        <ele>379</ele>
        <time>2012-04-05T15:02:19Z</time>
      </trkpt>
      <trkpt lat="47.19023" lon="5.56825">
        <ele>379</ele>
        <time>2012-04-05T15:02:27Z</time>
      </trkpt>
      <trkpt lat="47.19025" lon="5.56833">
        <ele>379</ele>
        <time>2012-04-05T15:02:32Z</time>
      </trkpt>
      <trkpt lat="47.19037" lon="5.56855">
        <ele>377</ele>
        <time>2012-04-05T15:02:48Z</time>
      </trkpt>
      <trkpt lat="47.1905" lon="5.56891">
        <ele>375</ele>
        <time>2012-04-05T15:03:11Z</time>
      </trkpt>
      <trkpt lat="47.19055" lon="5.569">
        <ele>374</ele>
        <time>2012-04-05T15:03:18Z</time>
      </trkpt>
      <trkpt lat="47.19061" lon="5.56911">
        <ele>373</ele>
        <time>2012-04-05T15:03:27Z</time>
      </trkpt>
      <trkpt lat="47.19069" lon="5.56932">
        <ele>370</ele>
        <time>2012-04-05T15:03:45Z</time>
      </trkpt>
      <trkpt lat="47.19076" lon="5.56943">
        <ele>367</ele>
        <time>2012-04-05T15:03:59Z</time>
      </trkpt>
      <trkpt lat="47.1908" lon="5.56954">
        <ele>364</ele>
        <time>2012-04-05T15:04:11Z</time>
      </trkpt>
      <trkpt lat="47.19082" lon="5.56959">
        <ele>362</ele>
        <time>2012-04-05T15:04:15Z</time>
      </trkpt>
      <trkpt lat="47.1909" lon="5.5699">
        <ele>359</ele>
        <time>2012-04-05T15:04:32Z</time>
      </trkpt>
      <trkpt lat="47.19093" lon="5.57014">
        <ele>357</ele>
        <time>2012-04-05T15:04:45Z</time>
      </trkpt>
      <trkpt lat="47.19095" lon="5.57019">
        <ele>356</ele>
        <time>2012-04-05T15:04:50Z</time>
      </trkpt>
      <trkpt lat="47.19104" lon="5.57037">
        <ele>353</ele>
        <time>2012-04-05T15:05:07Z</time>
      </trkpt>
      <trkpt lat="47.19106" lon="5.57038">
        <ele>353</ele>
        <time>2012-04-05T15:05:08Z</time>
      </trkpt>
      <trkpt lat="47.19119" lon="5.57052">
        <ele>356</ele>
        <time>2012-04-05T15:05:29Z</time>
      </trkpt>
      <trkpt lat="47.19123" lon="5.57059">
        <ele>358</ele>
        <time>2012-04-05T15:05:38Z</time>
      </trkpt>
      <trkpt lat="47.1913" lon="5.57079">
        <ele>361</ele>
        <time>2012-04-05T15:05:57Z</time>
      </trkpt>
      <trkpt lat="47.19141" lon="5.57094">
        <ele>364</ele>
        <time>2012-04-05T15:06:19Z</time>
      </trkpt>
      <trkpt lat="47.1915" lon="5.57105">
        <ele>365</ele>
        <time>2012-04-05T15:06:35Z</time>
      </trkpt>
      <trkpt lat="47.19156" lon="5.57127">
        <ele>368</ele>
        <time>2012-04-05T15:06:53Z</time>
      </trkpt>
      <trkpt lat="47.1917" lon="5.5715">
        <ele>370</ele>
        <time>2012-04-05T15:07:12Z</time>
      </trkpt>
      <trkpt lat="47.19172" lon="5.57152">
        <ele>370</ele>
        <time>2012-04-05T15:07:13Z</time>
      </trkpt>
      <trkpt lat="47.19186" lon="5.57188">
        <ele>372</ele>
        <time>2012-04-05T15:07:35Z</time>
      </trkpt>
      <trkpt lat="47.19205" lon="5.57211">
        <ele>374</ele>
        <time>2012-04-05T15:07:55Z</time>
      </trkpt>
      <trkpt lat="47.19211" lon="5.57227">
        <ele>374</ele>
        <time>2012-04-05T15:08:09Z</time>
      </trkpt>
      <trkpt lat="47.19216" lon="5.57238">
        <ele>375</ele>
        <time>2012-04-05T15:08:17Z</time>
      </trkpt>
      <trkpt lat="47.19226" lon="5.57269">
        <ele>375</ele>
        <time>2012-04-05T15:08:34Z</time>
      </trkpt>
      <trkpt lat="47.19236" lon="5.57286">
        <ele>375</ele>
        <time>2012-04-05T15:08:48Z</time>
      </trkpt>
      <trkpt lat="47.1924" lon="5.57307">
        <ele>375</ele>
        <time>2012-04-05T15:09:05Z</time>
      </trkpt>
      <trkpt lat="47.19252" lon="5.57324">
        <ele>376</ele>
        <time>2012-04-05T15:09:24Z</time>
      </trkpt>
      <trkpt lat="47.19265" lon="5.57352">
        <ele>376</ele>
        <time>2012-04-05T15:09:44Z</time>
      </trkpt>
      <trkpt lat="47.19277" lon="5.57382">
        <ele>377</ele>
        <time>2012-04-05T15:10:02Z</time>
      </trkpt>
      <trkpt lat="47.19278" lon="5.57389">
        <ele>377</ele>
        <time>2012-04-05T15:10:06Z</time>
      </trkpt>
      <trkpt lat="47.1929" lon="5.57411">
        <ele>376</ele>
        <time>2012-04-05T15:10:24Z</time>
      </trkpt>
      <trkpt lat="47.19305" lon="5.57434">
        <ele>375</ele>
        <time>2012-04-05T15:10:40Z</time>
      </trkpt>
      <trkpt lat="47.19317" lon="5.57465">
        <ele>372</ele>
        <time>2012-04-05T15:11:02Z</time>
      </trkpt>
      <trkpt lat="47.19318" lon="5.57466">
        <ele>372</ele>
        <time>2012-04-05T15:11:03Z</time>
      </trkpt>
      <trkpt lat="47.19328" lon="5.57487">
        <ele>369</ele>
        <time>2012-04-05T15:11:18Z</time>
      </trkpt>
      <trkpt lat="47.19338" lon="5.5751">
        <ele>367</ele>
        <time>2012-04-05T15:11:36Z</time>
      </trkpt>
      <trkpt lat="47.19353" lon="5.57526">
        <ele>364</ele>
        <time>2012-04-05T15:11:54Z</time>
      </trkpt>
      <trkpt lat="47.1936" lon="5.57549">
        <ele>361</ele>
        <time>2012-04-05T15:12:15Z</time>
      </trkpt>
      <trkpt lat="47.19379" lon="5.57569">
        <ele>359</ele>
        <time>2012-04-05T15:12:36Z</time>
      </trkpt>
      <trkpt lat="47.1938" lon="5.57592">
        <ele>362</ele>
        <time>2012-04-05T15:12:52Z</time>
      </trkpt>
      <trkpt lat="47.19387" lon="5.57608">
        <ele>365</ele>
        <time>2012-04-05T15:13:07Z</time>
      </trkpt>
      <trkpt lat="47.194" lon="5.57627">
        <ele>365</ele>
        <time>2012-04-05T15:13:27Z</time>
      </trkpt>
      <trkpt lat="47.19401" lon="5.5763">
        <ele>368</ele>
        <time>2012-04-05T15:13:30Z</time>
      </trkpt>
      <trkpt lat="47.19404" lon="5.57641">
        <ele>368</ele>
        <time>2012-04-05T15:13:41Z</time>
      </trkpt>
      <trkpt lat="47.19409" lon="5.57649">
        <ele>368</ele>
        <time>2012-04-05T15:13:48Z</time>
      </trkpt>
      <trkpt lat="47.19425" lon="5.57667">
        <ele>368</ele>
        <time>2012-04-05T15:14:01Z</time>
      </trkpt>
      <trkpt lat="47.19445" lon="5.57685">
        <ele>368</ele>
        <time>2012-04-05T15:14:21Z</time>
      </trkpt>
      <trkpt lat="47.19465" lon="5.57717">
        <ele>368</ele>
        <time>2012-04-05T15:14:44Z</time>
      </trkpt>
      <trkpt lat="47.19476" lon="5.57733">
        <ele>367</ele>
        <time>2012-04-05T15:15:00Z</time>
      </trkpt>
      <trkpt lat="47.19493" lon="5.57752">
        <ele>366</ele>
        <time>2012-04-05T15:15:17Z</time>
      </trkpt>
      <trkpt lat="47.19507" lon="5.57782">
        <ele>366</ele>
        <time>2012-04-05T15:15:38Z</time>
      </trkpt>
      <trkpt lat="47.19527" lon="5.57803">
        <ele>369</ele>
        <time>2012-04-05T15:16:04Z</time>
      </trkpt>
      <trkpt lat="47.19544" lon="5.57826">
        <ele>370</ele>
        <time>2012-04-05T15:16:25Z</time>
      </trkpt>
      <trkpt lat="47.19551" lon="5.57842">
        <ele>370</ele>
        <time>2012-04-05T15:16:36Z</time>
      </trkpt>
      <trkpt lat="47.19559" lon="5.57856">
        <ele>370</ele>
        <time>2012-04-05T15:16:51Z</time>
      </trkpt>
      <trkpt lat="47.19571" lon="5.57885">
        <ele>369</ele>
        <time>2012-04-05T15:17:12Z</time>
      </trkpt>
      <trkpt lat="47.19574" lon="5.5789">
        <ele>369</ele>
        <time>2012-04-05T15:17:15Z</time>
      </trkpt>
      <trkpt lat="47.19585" lon="5.57914">
        <ele>368</ele>
        <time>2012-04-05T15:17:33Z</time>
      </trkpt>
      <trkpt lat="47.196" lon="5.57931">
        <ele>366</ele>
        <time>2012-04-05T15:17:51Z</time>
      </trkpt>
      <trkpt lat="47.19614" lon="5.57951">
        <ele>364</ele>
        <time>2012-04-05T15:18:06Z</time>
      </trkpt>
      <trkpt lat="47.19627" lon="5.57968">
        <ele>362</ele>
        <time>2012-04-05T15:18:22Z</time>
      </trkpt>
      <trkpt lat="47.1964" lon="5.57987">
        <ele>358</ele>
        <time>2012-04-05T15:18:39Z</time>
      </trkpt>
      <trkpt lat="47.19651" lon="5.57998">
        <ele>355</ele>
        <time>2012-04-05T15:18:54Z</time>
      </trkpt>
      <trkpt lat="47.1965" lon="5.58011">
        <ele>352</ele>
        <time>2012-04-05T15:19:06Z</time>
      </trkpt>
      <trkpt lat="47.19665" lon="5.5802">
        <ele>349</ele>
        <time>2012-04-05T15:19:20Z</time>
      </trkpt>
      <trkpt lat="47.19677" lon="5.58027">
        <ele>346</ele>
        <time>2012-04-05T15:19:34Z</time>
      </trkpt>
      <trkpt lat="47.19688" lon="5.58033">
        <ele>346</ele>
        <time>2012-04-05T15:19:51Z</time>
      </trkpt>
      <trkpt lat="47.19686" lon="5.58043">
        <ele>346</ele>
        <time>2012-04-05T15:20:05Z</time>
      </trkpt>
      <trkpt lat="47.19696" lon="5.58054">
        <ele>347</ele>
        <time>2012-04-05T15:20:46Z</time>
      </trkpt>
      <trkpt lat="47.19702" lon="5.5803">
        <ele>348</ele>
        <time>2012-04-05T15:21:22Z</time>
      </trkpt>
      <trkpt lat="47.19712" lon="5.58017">
        <ele>350</ele>
        <time>2012-04-05T15:21:40Z</time>
      </trkpt>
      <trkpt lat="47.19716" lon="5.58014">
        <ele>351</ele>
        <time>2012-04-05T15:21:44Z</time>
      </trkpt>
      <trkpt lat="47.19732" lon="5.57996">
        <ele>354</ele>
        <time>2012-04-05T15:22:06Z</time>
      </trkpt>
      <trkpt lat="47.19753" lon="5.57974">
        <ele>356</ele>
        <time>2012-04-05T15:22:29Z</time>
      </trkpt>
      <trkpt lat="47.1977" lon="5.57947">
        <ele>358</ele>
        <time>2012-04-05T15:22:51Z</time>
      </trkpt>
      <trkpt lat="47.19781" lon="5.57936">
        <ele>359</ele>
        <time>2012-04-05T15:23:02Z</time>
      </trkpt>
      <trkpt lat="47.19793" lon="5.57925">
        <ele>359</ele>
        <time>2012-04-05T15:23:15Z</time>
      </trkpt>
      <trkpt lat="47.19797" lon="5.57906">
        <ele>361</ele>
        <time>2012-04-05T15:23:34Z</time>
      </trkpt>
      <trkpt lat="47.19804" lon="5.57899">
        <ele>362</ele>
        <time>2012-04-05T15:23:46Z</time>
      </trkpt>
      <trkpt lat="47.19821" lon="5.57882">
        <ele>364</ele>
        <time>2012-04-05T15:24:05Z</time>
      </trkpt>
      <trkpt lat="47.1983" lon="5.57872">
        <ele>365</ele>
        <time>2012-04-05T15:24:17Z</time>
      </trkpt>
      <trkpt lat="47.19839" lon="5.57861">
        <ele>366</ele>
        <time>2012-04-05T15:24:29Z</time>
      </trkpt>
      <trkpt lat="47.19851" lon="5.57856">
        <ele>367</ele>
        <time>2012-04-05T15:24:39Z</time>
      </trkpt>
      <trkpt lat="47.19863" lon="5.57846">
        <ele>368</ele>
        <time>2012-04-05T15:24:51Z</time>
      </trkpt>
      <trkpt lat="47.19876" lon="5.57833">
        <ele>369</ele>
        <time>2012-04-05T15:25:06Z</time>
      </trkpt>
      <trkpt lat="47.19877" lon="5.57831">
        <ele>369</ele>
        <time>2012-04-05T15:25:08Z</time>
      </trkpt>
      <trkpt lat="47.19881" lon="5.57823">
        <ele>369</ele>
        <time>2012-04-05T15:25:13Z</time>
      </trkpt>
      <trkpt lat="47.19889" lon="5.57795">
        <ele>370</ele>
        <time>2012-04-05T15:25:31Z</time>
      </trkpt>
      <trkpt lat="47.19898" lon="5.57794">
        <ele>371</ele>
        <time>2012-04-05T15:25:42Z</time>
      </trkpt>
      <trkpt lat="47.19911" lon="5.57805">
        <ele>371</ele>
        <time>2012-04-05T15:25:53Z</time>
      </trkpt>
      <trkpt lat="47.19915" lon="5.57807">
        <ele>371</ele>
        <time>2012-04-05T15:25:56Z</time>
      </trkpt>
      <trkpt lat="47.1994" lon="5.57824">
        <ele>371</ele>
        <time>2012-04-05T15:26:17Z</time>
      </trkpt>
      <trkpt lat="47.19944" lon="5.57825">
        <ele>371</ele>
        <time>2012-04-05T15:26:20Z</time>
      </trkpt>
      <trkpt lat="47.19959" lon="5.5784">
        <ele>371</ele>
        <time>2012-04-05T15:26:33Z</time>
      </trkpt>
      <trkpt lat="47.19979" lon="5.57847">
        <ele>372</ele>
        <time>2012-04-05T15:26:50Z</time>
      </trkpt>
      <trkpt lat="47.1999" lon="5.57856">
        <ele>372</ele>
        <time>2012-04-05T15:27:05Z</time>
      </trkpt>
      <trkpt lat="47.20002" lon="5.57854">
        <ele>371</ele>
        <time>2012-04-05T15:27:25Z</time>
      </trkpt>
      <trkpt lat="47.20018" lon="5.57869">
        <ele>370</ele>
        <time>2012-04-05T15:27:41Z</time>
      </trkpt>
      <trkpt lat="47.20032" lon="5.57891">
        <ele>368</ele>
        <time>2012-04-05T15:27:57Z</time>
      </trkpt>
      <trkpt lat="47.20051" lon="5.57914">
        <ele>366</ele>
        <time>2012-04-05T15:28:18Z</time>
      </trkpt>
      <trkpt lat="47.20064" lon="5.57931">
        <ele>364</ele>
        <time>2012-04-05T15:28:36Z</time>
      </trkpt>
      <trkpt lat="47.20078" lon="5.57953">
        <ele>362</ele>
        <time>2012-04-05T15:28:56Z</time>
      </trkpt>
      <trkpt lat="47.20092" lon="5.57958">
        <ele>359</ele>
        <time>2012-04-05T15:29:12Z</time>
      </trkpt>
      <trkpt lat="47.20109" lon="5.57969">
        <ele>356</ele>
        <time>2012-04-05T15:29:28Z</time>
      </trkpt>
      <trkpt lat="47.20134" lon="5.57987">
        <ele>353</ele>
        <time>2012-04-05T15:29:48Z</time>
      </trkpt>
      <trkpt lat="47.20141" lon="5.57999">
        <ele>352</ele>
        <time>2012-04-05T15:29:59Z</time>
      </trkpt>
      <trkpt lat="47.20145" lon="5.58006">
        <ele>352</ele>
        <time>2012-04-05T15:30:06Z</time>
      </trkpt>
      <trkpt lat="47.20154" lon="5.58033">
        <ele>351</ele>
        <time>2012-04-05T15:30:24Z</time>
      </trkpt>
      <trkpt lat="47.20167" lon="5.58066">
        <ele>350</ele>
        <time>2012-04-05T15:30:48Z</time>
      </trkpt>
      <trkpt lat="47.20172" lon="5.58086">
        <ele>349</ele>
        <time>2012-04-05T15:31:01Z</time>
      </trkpt>
      <trkpt lat="47.20181" lon="5.58106">
        <ele>349</ele>
        <time>2012-04-05T15:31:16Z</time>
      </trkpt>
      <trkpt lat="47.20184" lon="5.58112">
        <ele>349</ele>
        <time>2012-04-05T15:31:19Z</time>
      </trkpt>
      <trkpt lat="47.20192" lon="5.58131">
        <ele>349</ele>
        <time>2012-04-05T15:31:34Z</time>
      </trkpt>
      <trkpt lat="47.202" lon="5.58155">
        <ele>348</ele>
        <time>2012-04-05T15:31:48Z</time>
      </trkpt>
      <trkpt lat="47.20205" lon="5.58176">
        <ele>349</ele>
        <time>2012-04-05T15:32:03Z</time>
      </trkpt>
      <trkpt lat="47.20212" lon="5.58209">
        <ele>348</ele>
        <time>2012-04-05T15:32:22Z</time>
      </trkpt>
      <trkpt lat="47.20215" lon="5.58216">
        <ele>348</ele>
        <time>2012-04-05T15:32:26Z</time>
      </trkpt>
      <trkpt lat="47.2023" lon="5.58235">
        <ele>345</ele>
        <time>2012-04-05T15:32:43Z</time>
      </trkpt>
      <trkpt lat="47.20245" lon="5.58253">
        <ele>343</ele>
        <time>2012-04-05T15:32:57Z</time>
      </trkpt>
      <trkpt lat="47.20251" lon="5.58279">
        <ele>340</ele>
        <time>2012-04-05T15:33:18Z</time>
      </trkpt>
      <trkpt lat="47.20266" lon="5.58295">
        <ele>338</ele>
        <time>2012-04-05T15:33:32Z</time>
      </trkpt>
      <trkpt lat="47.2028" lon="5.58309">
        <ele>334</ele>
        <time>2012-04-05T15:33:46Z</time>
      </trkpt>
      <trkpt lat="47.20302" lon="5.58336">
        <ele>332</ele>
        <time>2012-04-05T15:34:06Z</time>
      </trkpt>
      <trkpt lat="47.20316" lon="5.58356">
        <ele>331</ele>
        <time>2012-04-05T15:34:23Z</time>
      </trkpt>
      <trkpt lat="47.20322" lon="5.58366">
        <ele>330</ele>
        <time>2012-04-05T15:34:30Z</time>
      </trkpt>
      <trkpt lat="47.20328" lon="5.58372">
        <ele>330</ele>
        <time>2012-04-05T15:34:34Z</time>
      </trkpt>
      <trkpt lat="47.20341" lon="5.58392">
        <ele>330</ele>
        <time>2012-04-05T15:34:48Z</time>
      </trkpt>
      <trkpt lat="47.20348" lon="5.58413">
        <ele>329</ele>
        <time>2012-04-05T15:35:01Z</time>
      </trkpt>
      <trkpt lat="47.20356" lon="5.5842">
        <ele>327</ele>
        <time>2012-04-05T15:35:15Z</time>
      </trkpt>
      <trkpt lat="47.2037" lon="5.58441">
        <ele>325</ele>
        <time>2012-04-05T15:35:34Z</time>
      </trkpt>
      <trkpt lat="47.20385" lon="5.58457">
        <ele>325</ele>
        <time>2012-04-05T15:35:53Z</time>
      </trkpt>
      <trkpt lat="47.20391" lon="5.5845">
        <ele>323</ele>
        <time>2012-04-05T15:36:15Z</time>
      </trkpt>
      <trkpt lat="47.20398" lon="5.58452">
        <ele>322</ele>
        <time>2012-04-05T15:36:33Z</time>
      </trkpt>
      <trkpt lat="47.20399" lon="5.5845">
        <ele>322</ele>
        <time>2012-04-05T15:36:35Z</time>
      </trkpt>
      <trkpt lat="47.20414" lon="5.5844">
        <ele>322</ele>
        <time>2012-04-05T15:36:57Z</time>
      </trkpt>
      <trkpt lat="47.20429" lon="5.58433">
        <ele>320</ele>
        <time>2012-04-05T15:37:13Z</time>
      </trkpt>
      <trkpt lat="47.20437" lon="5.58423">
        <ele>319</ele>
        <time>2012-04-05T15:37:28Z</time>
      </trkpt>
      <trkpt lat="47.20448" lon="5.58419">
        <ele>319</ele>
        <time>2012-04-05T15:37:44Z</time>
      </trkpt>
      <trkpt lat="47.20445" lon="5.58419">
        <ele>319</ele>
        <time>2012-04-05T15:38:12Z</time>
      </trkpt>
      <trkpt lat="47.20438" lon="5.58408">
        <ele>319</ele>
        <time>2012-04-05T15:38:52Z</time>
      </trkpt>
      <trkpt lat="47.20443" lon="5.58399">
        <ele>320</ele>
        <time>2012-04-05T15:39:10Z</time>
      </trkpt>
      <trkpt lat="47.20454" lon="5.58384">
        <ele>319</ele>
        <time>2012-04-05T15:39:33Z</time>
      </trkpt>
      <trkpt lat="47.20458" lon="5.58376">
        <ele>319</ele>
        <time>2012-04-05T15:39:47Z</time>
      </trkpt>
      <trkpt lat="47.20461" lon="5.58373">
        <ele>320</ele>
        <time>2012-04-05T15:40:31Z</time>
      </trkpt>
      <trkpt lat="47.20471" lon="5.5836">
        <ele>320</ele>
        <time>2012-04-05T15:40:51Z</time>
      </trkpt>
      <trkpt lat="47.20472" lon="5.58358">
        <ele>320</ele>
        <time>2012-04-05T15:41:11Z</time>
      </trkpt>
      <trkpt lat="47.20487" lon="5.58347">
        <ele>319</ele>
        <time>2012-04-05T15:41:47Z</time>
      </trkpt>
      <trkpt lat="47.20514" lon="5.58339">
        <ele>318</ele>
        <time>2012-04-05T15:42:07Z</time>
      </trkpt>
      <trkpt lat="47.20536" lon="5.58359">
        <ele>319</ele>
        <time>2012-04-05T15:42:25Z</time>
      </trkpt>
      <trkpt lat="47.20538" lon="5.58375">
        <ele>320</ele>
        <time>2012-04-05T15:42:42Z</time>
      </trkpt>
      <trkpt lat="47.20541" lon="5.58419">
        <ele>322</ele>
        <time>2012-04-05T15:43:07Z</time>
      </trkpt>
      <trkpt lat="47.20542" lon="5.58448">
        <ele>324</ele>
        <time>2012-04-05T15:43:23Z</time>
      </trkpt>
      <trkpt lat="47.20544" lon="5.58473">
        <ele>327</ele>
        <time>2012-04-05T15:43:41Z</time>
      </trkpt>
      <trkpt lat="47.20539" lon="5.58496">
        <ele>330</ele>
        <time>2012-04-05T15:43:56Z</time>
      </trkpt>
      <trkpt lat="47.20538" lon="5.58522">
        <ele>333</ele>
        <time>2012-04-05T15:44:14Z</time>
      </trkpt>
      <trkpt lat="47.20539" lon="5.58545">
        <ele>336</ele>
        <time>2012-04-05T15:44:29Z</time>
      </trkpt>
      <trkpt lat="47.20537" lon="5.58568">
        <ele>338</ele>
        <time>2012-04-05T15:44:43Z</time>
      </trkpt>
      <trkpt lat="47.20539" lon="5.586">
        <ele>339</ele>
        <time>2012-04-05T15:44:59Z</time>
      </trkpt>
      <trkpt lat="47.20537" lon="5.58632">
        <ele>342</ele>
        <time>2012-04-05T15:45:16Z</time>
      </trkpt>
      <trkpt lat="47.20531" lon="5.58646">
        <ele>345</ele>
        <time>2012-04-05T15:45:28Z</time>
      </trkpt>
      <trkpt lat="47.20524" lon="5.58653">
        <ele>346</ele>
        <time>2012-04-05T15:45:36Z</time>
      </trkpt>
      <trkpt lat="47.20502" lon="5.58682">
        <ele>350</ele>
        <time>2012-04-05T15:46:00Z</time>
      </trkpt>
      <trkpt lat="47.20494" lon="5.5869">
        <ele>350</ele>
        <time>2012-04-05T15:46:24Z</time>
      </trkpt>
      <trkpt lat="47.20487" lon="5.58677">
        <ele>350</ele>
        <time>2012-04-05T15:46:55Z</time>
      </trkpt>
      <trkpt lat="47.20487" lon="5.58684">
        <ele>349</ele>
        <time>2012-04-05T15:48:37Z</time>
      </trkpt>
      <trkpt lat="47.20483" lon="5.58698">
        <ele>349</ele>
        <time>2012-04-05T15:49:34Z</time>
      </trkpt>
      <trkpt lat="47.20463" lon="5.58699">
        <ele>347</ele>
        <time>2012-04-05T15:56:35Z</time>
      </trkpt>
      <trkpt lat="47.2044" lon="5.587">
        <ele>346</ele>
        <time>2012-04-05T15:56:52Z</time>
      </trkpt>
      <trkpt lat="47.2042" lon="5.58701">
        <ele>345</ele>
        <time>2012-04-05T15:57:05Z</time>
      </trkpt>
      <trkpt lat="47.20404" lon="5.58704">
        <ele>345</ele>
        <time>2012-04-05T15:57:21Z</time>
      </trkpt>
      <trkpt lat="47.20393" lon="5.58709">
        <ele>345</ele>
        <time>2012-04-05T15:57:38Z</time>
      </trkpt>
      <trkpt lat="47.20383" lon="5.58721">
        <ele>346</ele>
        <time>2012-04-05T15:58:00Z</time>
      </trkpt>
      <trkpt lat="47.20371" lon="5.58738">
        <ele>346</ele>
        <time>2012-04-05T15:58:15Z</time>
      </trkpt>
      <trkpt lat="47.20365" lon="5.58753">
        <ele>347</ele>
        <time>2012-04-05T15:58:26Z</time>
      </trkpt>
      <trkpt lat="47.20361" lon="5.58783">
        <ele>349</ele>
        <time>2012-04-05T15:58:44Z</time>
      </trkpt>
      <trkpt lat="47.20361" lon="5.588">
        <ele>351</ele>
        <time>2012-04-05T15:58:54Z</time>
      </trkpt>
      <trkpt lat="47.20358" lon="5.58833">
        <ele>354</ele>
        <time>2012-04-05T15:59:13Z</time>
      </trkpt>
      <trkpt lat="47.20355" lon="5.58855">
        <ele>356</ele>
        <time>2012-04-05T15:59:32Z</time>
      </trkpt>
      <trkpt lat="47.2036" lon="5.5886">
        <ele>357</ele>
        <time>2012-04-05T15:59:46Z</time>
      </trkpt>
      <trkpt lat="47.20358" lon="5.5888">
        <ele>359</ele>
        <time>2012-04-05T16:00:02Z</time>
      </trkpt>
      <trkpt lat="47.20361" lon="5.58898">
        <ele>361</ele>
        <time>2012-04-05T16:00:16Z</time>
      </trkpt>
      <trkpt lat="47.20366" lon="5.58933">
        <ele>363</ele>
        <time>2012-04-05T16:00:38Z</time>
      </trkpt>
      <trkpt lat="47.20365" lon="5.58967">
        <ele>365</ele>
        <time>2012-04-05T16:00:58Z</time>
      </trkpt>
      <trkpt lat="47.2035" lon="5.59">
        <ele>368</ele>
        <time>2012-04-05T16:01:17Z</time>
      </trkpt>
      <trkpt lat="47.20334" lon="5.59028">
        <ele>371</ele>
        <time>2012-04-05T16:01:37Z</time>
      </trkpt>
      <trkpt lat="47.20322" lon="5.59061">
        <ele>374</ele>
        <time>2012-04-05T16:01:57Z</time>
      </trkpt>
      <trkpt lat="47.20312" lon="5.59046">
        <ele>375</ele>
        <time>2012-04-05T16:02:11Z</time>
      </trkpt>
      <trkpt lat="47.20305" lon="5.59034">
        <ele>375</ele>
        <time>2012-04-05T16:02:36Z</time>
      </trkpt>
      <trkpt lat="47.20308" lon="5.59044">
        <ele>375</ele>
        <time>2012-04-05T16:03:07Z</time>
      </trkpt>
      <trkpt lat="47.203" lon="5.59024">
        <ele>375</ele>
        <time>2012-04-05T16:03:34Z</time>
      </trkpt>
      <trkpt lat="47.20294" lon="5.59025">
        <ele>376</ele>
        <time>2012-04-05T16:03:42Z</time>
      </trkpt>
      <trkpt lat="47.20299" lon="5.59043">
        <ele>376</ele>
        <time>2012-04-05T16:03:58Z</time>
      </trkpt>
      <trkpt lat="47.203" lon="5.59061">
        <ele>377</ele>
        <time>2012-04-05T16:04:24Z</time>
      </trkpt>
      <trkpt lat="47.203" lon="5.59085">
        <ele>378</ele>
        <time>2012-04-05T16:04:40Z</time>
      </trkpt>
      <trkpt lat="47.20305" lon="5.59107">
        <ele>380</ele>
        <time>2012-04-05T16:04:57Z</time>
      </trkpt>
      <trkpt lat="47.2031" lon="5.59136">
        <ele>380</ele>
        <time>2012-04-05T16:05:13Z</time>
      </trkpt>
      <trkpt lat="47.20312" lon="5.59157">
        <ele>381</ele>
        <time>2012-04-05T16:05:28Z</time>
      </trkpt>
      <trkpt lat="47.20307" lon="5.59172">
        <ele>382</ele>
        <time>2012-04-05T16:05:38Z</time>
      </trkpt>
      <trkpt lat="47.20302" lon="5.59193">
        <ele>383</ele>
        <time>2012-04-05T16:05:52Z</time>
      </trkpt>
      <trkpt lat="47.203" lon="5.59223">
        <ele>386</ele>
        <time>2012-04-05T16:06:14Z</time>
      </trkpt>
      <trkpt lat="47.20297" lon="5.59244">
        <ele>387</ele>
        <time>2012-04-05T16:06:32Z</time>
      </trkpt>
      <trkpt lat="47.20288" lon="5.59282">
        <ele>389</ele>
        <time>2012-04-05T16:06:54Z</time>
      </trkpt>
      <trkpt lat="47.20285" lon="5.59304">
        <ele>390</ele>
        <time>2012-04-05T16:07:08Z</time>
      </trkpt>
      <trkpt lat="47.20286" lon="5.5932">
        <ele>392</ele>
        <time>2012-04-05T16:07:26Z</time>
      </trkpt>
      <trkpt lat="47.2029" lon="5.59347">
        <ele>393</ele>
        <time>2012-04-05T16:07:43Z</time>
      </trkpt>
      <trkpt lat="47.2028" lon="5.59385">
        <ele>394</ele>
        <time>2012-04-05T16:08:09Z</time>
      </trkpt>
      <trkpt lat="47.20281" lon="5.59418">
        <ele>395</ele>
        <time>2012-04-05T16:08:31Z</time>
      </trkpt>
      <trkpt lat="47.20283" lon="5.59452">
        <ele>396</ele>
        <time>2012-04-05T16:08:51Z</time>
      </trkpt>
      <trkpt lat="47.2029" lon="5.59478">
        <ele>396</ele>
        <time>2012-04-05T16:09:11Z</time>
      </trkpt>
      <trkpt lat="47.20294" lon="5.59511">
        <ele>396</ele>
        <time>2012-04-05T16:09:33Z</time>
      </trkpt>
      <trkpt lat="47.20291" lon="5.59541">
        <ele>397</ele>
        <time>2012-04-05T16:09:54Z</time>
      </trkpt>
      <trkpt lat="47.20278" lon="5.59542">
        <ele>398</ele>
        <time>2012-04-05T16:10:11Z</time>
      </trkpt>
      <trkpt lat="47.20275" lon="5.59546">
        <ele>398</ele>
        <time>2012-04-05T16:10:30Z</time>
      </trkpt>
      <trkpt lat="47.20273" lon="5.5954">
        <ele>398</ele>
        <time>2012-04-05T16:11:24Z</time>
      </trkpt>
      <trkpt lat="47.20271" lon="5.59555">
        <ele>398</ele>
        <time>2012-04-05T16:11:57Z</time>
      </trkpt>
      <trkpt lat="47.20269" lon="5.59555">
        <ele>398</ele>
        <time>2012-04-05T16:12:31Z</time>
      </trkpt>
      <trkpt lat="47.2027" lon="5.5955">
        <ele>399</ele>
        <time>2012-04-05T16:14:57Z</time>
      </trkpt>
      <trkpt lat="47.20295" lon="5.59558">
        <ele>397</ele>
        <time>2012-04-05T16:15:50Z</time>
      </trkpt>
      <trkpt lat="47.20299" lon="5.59561">
        <ele>397</ele>
        <time>2012-04-05T16:15:54Z</time>
      </trkpt>
      <trkpt lat="47.20306" lon="5.59598">
        <ele>396</ele>
        <time>2012-04-05T16:16:16Z</time>
      </trkpt>
      <trkpt lat="47.20304" lon="5.59604">
        <ele>397</ele>
        <time>2012-04-05T16:16:19Z</time>
      </trkpt>
      <trkpt lat="47.20301" lon="5.59614">
        <ele>397</ele>
        <time>2012-04-05T16:16:28Z</time>
      </trkpt>
      <trkpt lat="47.20299" lon="5.59616">
        <ele>397</ele>
        <time>2012-04-05T16:16:30Z</time>
      </trkpt>
      <trkpt lat="47.20289" lon="5.59636">
        <ele>395</ele>
        <time>2012-04-05T16:16:45Z</time>
      </trkpt>
      <trkpt lat="47.20278" lon="5.59661">
        <ele>394</ele>
        <time>2012-04-05T16:17:00Z</time>
      </trkpt>
      <trkpt lat="47.20261" lon="5.59681">
        <ele>390</ele>
        <time>2012-04-05T16:17:17Z</time>
      </trkpt>
      <trkpt lat="47.20247" lon="5.597">
        <ele>388</ele>
        <time>2012-04-05T16:17:31Z</time>
      </trkpt>
      <trkpt lat="47.20232" lon="5.59715">
        <ele>385</ele>
        <time>2012-04-05T16:17:47Z</time>
      </trkpt>
      <trkpt lat="47.20223" lon="5.59727">
        <ele>382</ele>
        <time>2012-04-05T16:18:09Z</time>
      </trkpt>
      <trkpt lat="47.20224" lon="5.59725">
        <ele>379</ele>
        <time>2012-04-05T16:18:31Z</time>
      </trkpt>
      <trkpt lat="47.20223" lon="5.59732">
        <ele>376</ele>
        <time>2012-04-05T16:18:47Z</time>
      </trkpt>
      <trkpt lat="47.20217" lon="5.59733">
        <ele>373</ele>
        <time>2012-04-05T16:19:03Z</time>
      </trkpt>
      <trkpt lat="47.20211" lon="5.59739">
        <ele>370</ele>
        <time>2012-04-05T16:19:19Z</time>
      </trkpt>
      <trkpt lat="47.20211" lon="5.59742">
        <ele>367</ele>
        <time>2012-04-05T16:19:33Z</time>
      </trkpt>
      <trkpt lat="47.20196" lon="5.59758">
        <ele>366</ele>
        <time>2012-04-05T16:20:18Z</time>
      </trkpt>
      <trkpt lat="47.20192" lon="5.59765">
        <ele>363</ele>
        <time>2012-04-05T16:20:36Z</time>
      </trkpt>
      <trkpt lat="47.20186" lon="5.59787">
        <ele>360</ele>
        <time>2012-04-05T16:20:53Z</time>
      </trkpt>
      <trkpt lat="47.2017" lon="5.59805">
        <ele>359</ele>
        <time>2012-04-05T16:21:11Z</time>
      </trkpt>
      <trkpt lat="47.20159" lon="5.59823">
        <ele>359</ele>
        <time>2012-04-05T16:21:27Z</time>
      </trkpt>
      <trkpt lat="47.20154" lon="5.59837">
        <ele>358</ele>
        <time>2012-04-05T16:21:39Z</time>
      </trkpt>
      <trkpt lat="47.20148" lon="5.59842">
        <ele>358</ele>
        <time>2012-04-05T16:21:55Z</time>
      </trkpt>
      <trkpt lat="47.20139" lon="5.59853">
        <ele>357</ele>
        <time>2012-04-05T16:22:07Z</time>
      </trkpt>
      <trkpt lat="47.20137" lon="5.59851">
        <ele>359</ele>
        <time>2012-04-05T16:22:45Z</time>
      </trkpt>
      <trkpt lat="47.20129" lon="5.59852">
        <ele>360</ele>
        <time>2012-04-05T16:23:13Z</time>
      </trkpt>
      <trkpt lat="47.20116" lon="5.59876">
        <ele>361</ele>
        <time>2012-04-05T16:23:35Z</time>
      </trkpt>
      <trkpt lat="47.20109" lon="5.59907">
        <ele>360</ele>
        <time>2012-04-05T16:23:53Z</time>
      </trkpt>
      <trkpt lat="47.20096" lon="5.59932">
        <ele>360</ele>
        <time>2012-04-05T16:24:09Z</time>
      </trkpt>
      <trkpt lat="47.20098" lon="5.59934">
        <ele>360</ele>
        <time>2012-04-05T16:24:12Z</time>
      </trkpt>
      <trkpt lat="47.20099" lon="5.5994">
        <ele>361</ele>
        <time>2012-04-05T16:24:15Z</time>
      </trkpt>
      <trkpt lat="47.20094" lon="5.59956">
        <ele>362</ele>
        <time>2012-04-05T16:24:26Z</time>
      </trkpt>
      <trkpt lat="47.20067" lon="5.59973">
        <ele>363</ele>
        <time>2012-04-05T16:24:46Z</time>
      </trkpt>
      <trkpt lat="47.2004" lon="5.60006">
        <ele>361</ele>
        <time>2012-04-05T16:25:06Z</time>
      </trkpt>
      <trkpt lat="47.20034" lon="5.60016">
        <ele>360</ele>
        <time>2012-04-05T16:25:15Z</time>
      </trkpt>
      <trkpt lat="47.20019" lon="5.60031">
        <ele>360</ele>
        <time>2012-04-05T16:25:30Z</time>
      </trkpt>
      <trkpt lat="47.20006" lon="5.60039">
        <ele>356</ele>
        <time>2012-04-05T16:25:47Z</time>
      </trkpt>
      <trkpt lat="47.19995" lon="5.60051">
        <ele>354</ele>
        <time>2012-04-05T16:26:03Z</time>
      </trkpt>
      <trkpt lat="47.19987" lon="5.60038">
        <ele>357</ele>
        <time>2012-04-05T16:26:16Z</time>
      </trkpt>
      <trkpt lat="47.19966" lon="5.60027">
        <ele>360</ele>
        <time>2012-04-05T16:26:32Z</time>
      </trkpt>
      <trkpt lat="47.19959" lon="5.60023">
        <ele>363</ele>
        <time>2012-04-05T16:26:47Z</time>
      </trkpt>
      <trkpt lat="47.19956" lon="5.60018">
        <ele>366</ele>
        <time>2012-04-05T16:26:58Z</time>
      </trkpt>
      <trkpt lat="47.19955" lon="5.60017">
        <ele>366</ele>
        <time>2012-04-05T16:26:59Z</time>
      </trkpt>
      <trkpt lat="47.1995" lon="5.60003">
        <ele>369</ele>
        <time>2012-04-05T16:27:19Z</time>
      </trkpt>
      <trkpt lat="47.19939" lon="5.59986">
        <ele>372</ele>
        <time>2012-04-05T16:27:38Z</time>
      </trkpt>
      <trkpt lat="47.19932" lon="5.59968">
        <ele>374</ele>
        <time>2012-04-05T16:27:58Z</time>
      </trkpt>
      <trkpt lat="47.19917" lon="5.59964">
        <ele>375</ele>
        <time>2012-04-05T16:28:15Z</time>
      </trkpt>
      <trkpt lat="47.19906" lon="5.59949">
        <ele>376</ele>
        <time>2012-04-05T16:28:38Z</time>
      </trkpt>
      <trkpt lat="47.19888" lon="5.59928">
        <ele>376</ele>
        <time>2012-04-05T16:28:59Z</time>
      </trkpt>
      <trkpt lat="47.19878" lon="5.59908">
        <ele>376</ele>
        <time>2012-04-05T16:29:17Z</time>
      </trkpt>
      <trkpt lat="47.19863" lon="5.59885">
        <ele>374</ele>
        <time>2012-04-05T16:29:37Z</time>
      </trkpt>
      <trkpt lat="47.19851" lon="5.59863">
        <ele>372</ele>
        <time>2012-04-05T16:29:56Z</time>
      </trkpt>
      <trkpt lat="47.19835" lon="5.59841">
        <ele>369</ele>
        <time>2012-04-05T16:30:14Z</time>
      </trkpt>
      <trkpt lat="47.19825" lon="5.59821">
        <ele>367</ele>
        <time>2012-04-05T16:30:31Z</time>
      </trkpt>
      <trkpt lat="47.19811" lon="5.59799">
        <ele>365</ele>
        <time>2012-04-05T16:30:48Z</time>
      </trkpt>
      <trkpt lat="47.19806" lon="5.59795">
        <ele>365</ele>
        <time>2012-04-05T16:31:25Z</time>
      </trkpt>
      <trkpt lat="47.19803" lon="5.59779">
        <ele>364</ele>
        <time>2012-04-05T16:31:38Z</time>
      </trkpt>
      <trkpt lat="47.19799" lon="5.59762">
        <ele>363</ele>
        <time>2012-04-05T16:31:50Z</time>
      </trkpt>
      <trkpt lat="47.19798" lon="5.59759">
        <ele>363</ele>
        <time>2012-04-05T16:31:52Z</time>
      </trkpt>
      <trkpt lat="47.19796" lon="5.59752">
        <ele>362</ele>
        <time>2012-04-05T16:31:57Z</time>
      </trkpt>
      <trkpt lat="47.19788" lon="5.59743">
        <ele>360</ele>
        <time>2012-04-05T16:32:06Z</time>
      </trkpt>
      <trkpt lat="47.19786" lon="5.5974">
        <ele>360</ele>
        <time>2012-04-05T16:32:08Z</time>
      </trkpt>
      <trkpt lat="47.19782" lon="5.59733">
        <ele>359</ele>
        <time>2012-04-05T16:32:14Z</time>
      </trkpt>
      <trkpt lat="47.19777" lon="5.59722">
        <ele>358</ele>
        <time>2012-04-05T16:32:22Z</time>
      </trkpt>
      <trkpt lat="47.19775" lon="5.59721">
        <ele>357</ele>
        <time>2012-04-05T16:32:24Z</time>
      </trkpt>
      <trkpt lat="47.19774" lon="5.59717">
        <ele>356</ele>
        <time>2012-04-05T16:32:30Z</time>
      </trkpt>
      <trkpt lat="47.1976" lon="5.59711">
        <ele>355</ele>
        <time>2012-04-05T16:32:44Z</time>
      </trkpt>
      <trkpt lat="47.19741" lon="5.59709">
        <ele>353</ele>
        <time>2012-04-05T16:33:01Z</time>
      </trkpt>
      <trkpt lat="47.19718" lon="5.59703">
        <ele>351</ele>
        <time>2012-04-05T16:33:18Z</time>
      </trkpt>
      <trkpt lat="47.19697" lon="5.59697">
        <ele>348</ele>
        <time>2012-04-05T16:33:35Z</time>
      </trkpt>
      <trkpt lat="47.19693" lon="5.59696">
        <ele>348</ele>
        <time>2012-04-05T16:33:38Z</time>
      </trkpt>
      <trkpt lat="47.19673" lon="5.59704">
        <ele>346</ele>
        <time>2012-04-05T16:33:55Z</time>
      </trkpt>
      <trkpt lat="47.1967" lon="5.59703">
        <ele>346</ele>
        <time>2012-04-05T16:33:58Z</time>
      </trkpt>
      <trkpt lat="47.19652" lon="5.59702">
        <ele>344</ele>
        <time>2012-04-05T16:34:14Z</time>
      </trkpt>
      <trkpt lat="47.1965" lon="5.59701">
        <ele>343</ele>
        <time>2012-04-05T16:34:16Z</time>
      </trkpt>
      <trkpt lat="47.19633" lon="5.597">
        <ele>341</ele>
        <time>2012-04-05T16:34:33Z</time>
      </trkpt>
      <trkpt lat="47.196" lon="5.59706">
        <ele>338</ele>
        <time>2012-04-05T16:34:59Z</time>
      </trkpt>
      <trkpt lat="47.19581" lon="5.59718">
        <ele>335</ele>
        <time>2012-04-05T16:35:20Z</time>
      </trkpt>
      <trkpt lat="47.19558" lon="5.59732">
        <ele>332</ele>
        <time>2012-04-05T16:35:39Z</time>
      </trkpt>
      <trkpt lat="47.19537" lon="5.59743">
        <ele>330</ele>
        <time>2012-04-05T16:35:58Z</time>
      </trkpt>
      <trkpt lat="47.19528" lon="5.59748">
        <ele>328</ele>
        <time>2012-04-05T16:36:19Z</time>
      </trkpt>
      <trkpt lat="47.19534" lon="5.59733">
        <ele>331</ele>
        <time>2012-04-05T16:36:32Z</time>
      </trkpt>
      <trkpt lat="47.1954" lon="5.59734">
        <ele>331</ele>
        <time>2012-04-05T16:36:48Z</time>
      </trkpt>
      <trkpt lat="47.19531" lon="5.59741">
        <ele>328</ele>
        <time>2012-04-05T16:37:38Z</time>
      </trkpt>
      <trkpt lat="47.19517" lon="5.5975">
        <ele>327</ele>
        <time>2012-04-05T16:37:58Z</time>
      </trkpt>
      <trkpt lat="47.19513" lon="5.59732">
        <ele>324</ele>
        <time>2012-04-05T16:38:49Z</time>
      </trkpt>
      <trkpt lat="47.19517" lon="5.59723">
        <ele>323</ele>
        <time>2012-04-05T16:38:57Z</time>
      </trkpt>
      <trkpt lat="47.19531" lon="5.597">
        <ele>320</ele>
        <time>2012-04-05T16:39:13Z</time>
      </trkpt>
      <trkpt lat="47.19541" lon="5.59678">
        <ele>317</ele>
        <time>2012-04-05T16:39:34Z</time>
      </trkpt>
      <trkpt lat="47.19555" lon="5.59659">
        <ele>315</ele>
        <time>2012-04-05T16:40:05Z</time>
      </trkpt>
      <trkpt lat="47.19555" lon="5.59644">
        <ele>314</ele>
        <time>2012-04-05T16:40:28Z</time>
      </trkpt>
      <trkpt lat="47.19559" lon="5.59639">
        <ele>313</ele>
        <time>2012-04-05T16:41:05Z</time>
      </trkpt>
      <trkpt lat="47.19562" lon="5.59632">
        <ele>315</ele>
        <time>2012-04-05T16:41:22Z</time>
      </trkpt>
      <trkpt lat="47.1957" lon="5.59626">
        <ele>319</ele>
        <time>2012-04-05T16:41:39Z</time>
      </trkpt>
      <trkpt lat="47.19578" lon="5.59619">
        <ele>321</ele>
        <time>2012-04-05T16:42:09Z</time>
      </trkpt>
      <trkpt lat="47.19583" lon="5.596">
        <ele>325</ele>
        <time>2012-04-05T16:42:26Z</time>
      </trkpt>
      <trkpt lat="47.19588" lon="5.59589">
        <ele>327</ele>
        <time>2012-04-05T16:42:49Z</time>
      </trkpt>
      <trkpt lat="47.19603" lon="5.59573">
        <ele>331</ele>
        <time>2012-04-05T16:43:16Z</time>
      </trkpt>
      <trkpt lat="47.19605" lon="5.59561">
        <ele>334</ele>
        <time>2012-04-05T16:43:36Z</time>
      </trkpt>
      <trkpt lat="47.19616" lon="5.59541">
        <ele>337</ele>
        <time>2012-04-05T16:44:06Z</time>
      </trkpt>
      <trkpt lat="47.19621" lon="5.59528">
        <ele>340</ele>
        <time>2012-04-05T16:44:35Z</time>
      </trkpt>
      <trkpt lat="47.19623" lon="5.59519">
        <ele>343</ele>
        <time>2012-04-05T16:44:58Z</time>
      </trkpt>
      <trkpt lat="47.19625" lon="5.59517">
        <ele>346</ele>
        <time>2012-04-05T16:45:27Z</time>
      </trkpt>
      <trkpt lat="47.19634" lon="5.5951">
        <ele>349</ele>
        <time>2012-04-05T16:45:47Z</time>
      </trkpt>
      <trkpt lat="47.19635" lon="5.59513">
        <ele>352</ele>
        <time>2012-04-05T16:46:01Z</time>
      </trkpt>
      <trkpt lat="47.19642" lon="5.59497">
        <ele>356</ele>
        <time>2012-04-05T16:46:14Z</time>
      </trkpt>
      <trkpt lat="47.19651" lon="5.59485">
        <ele>359</ele>
        <time>2012-04-05T16:46:26Z</time>
      </trkpt>
      <trkpt lat="47.19653" lon="5.59473">
        <ele>362</ele>
        <time>2012-04-05T16:46:37Z</time>
      </trkpt>
      <trkpt lat="47.19658" lon="5.59462">
        <ele>365</ele>
        <time>2012-04-05T16:46:48Z</time>
      </trkpt>
      <trkpt lat="47.19664" lon="5.59456">
        <ele>368</ele>
        <time>2012-04-05T16:47:02Z</time>
      </trkpt>
      <trkpt lat="47.19672" lon="5.59444">
        <ele>372</ele>
        <time>2012-04-05T16:47:16Z</time>
      </trkpt>
      <trkpt lat="47.19676" lon="5.59429">
        <ele>375</ele>
        <time>2012-04-05T16:47:31Z</time>
      </trkpt>
      <trkpt lat="47.19682" lon="5.59421">
        <ele>378</ele>
        <time>2012-04-05T16:47:45Z</time>
      </trkpt>
      <trkpt lat="47.19691" lon="5.59405">
        <ele>381</ele>
        <time>2012-04-05T16:48:01Z</time>
      </trkpt>
      <trkpt lat="47.19699" lon="5.59394">
        <ele>382</ele>
        <time>2012-04-05T16:48:06Z</time>
      </trkpt>
      <trkpt lat="47.19706" lon="5.59375">
        <ele>386</ele>
        <time>2012-04-05T16:48:21Z</time>
      </trkpt>
      <trkpt lat="47.19719" lon="5.59357">
        <ele>389</ele>
        <time>2012-04-05T16:48:35Z</time>
      </trkpt>
      <trkpt lat="47.19728" lon="5.59337">
        <ele>391</ele>
        <time>2012-04-05T16:48:58Z</time>
      </trkpt>
      <trkpt lat="47.19744" lon="5.59302">
        <ele>394</ele>
        <time>2012-04-05T16:49:18Z</time>
      </trkpt>
      <trkpt lat="47.19755" lon="5.59284">
        <ele>395</ele>
        <time>2012-04-05T16:49:32Z</time>
      </trkpt>
      <trkpt lat="47.1977" lon="5.59264">
        <ele>396</ele>
        <time>2012-04-05T16:49:48Z</time>
      </trkpt>
      <trkpt lat="47.19775" lon="5.5925">
        <ele>397</ele>
        <time>2012-04-05T16:50:12Z</time>
      </trkpt>
      <trkpt lat="47.19781" lon="5.59254">
        <ele>397</ele>
        <time>2012-04-05T16:53:21Z</time>
      </trkpt>
      <trkpt lat="47.19763" lon="5.59252">
        <ele>396</ele>
        <time>2012-04-05T16:53:39Z</time>
      </trkpt>
      <trkpt lat="47.19748" lon="5.5924">
        <ele>394</ele>
        <time>2012-04-05T16:53:56Z</time>
      </trkpt>
      <trkpt lat="47.19739" lon="5.59228">
        <ele>394</ele>
        <time>2012-04-05T16:54:07Z</time>
      </trkpt>
      <trkpt lat="47.19727" lon="5.59204">
        <ele>393</ele>
        <time>2012-04-05T16:54:23Z</time>
      </trkpt>
      <trkpt lat="47.19721" lon="5.59202">
        <ele>393</ele>
        <time>2012-04-05T16:54:27Z</time>
      </trkpt>
      <trkpt lat="47.19704" lon="5.59175">
        <ele>392</ele>
        <time>2012-04-05T16:54:45Z</time>
      </trkpt>
      <trkpt lat="47.1969" lon="5.59158">
        <ele>391</ele>
        <time>2012-04-05T16:55:02Z</time>
      </trkpt>
      <trkpt lat="47.19675" lon="5.59136">
        <ele>389</ele>
        <time>2012-04-05T16:55:19Z</time>
      </trkpt>
      <trkpt lat="47.19664" lon="5.59114">
        <ele>389</ele>
        <time>2012-04-05T16:55:35Z</time>
      </trkpt>
      <trkpt lat="47.19659" lon="5.59106">
        <ele>389</ele>
        <time>2012-04-05T16:55:44Z</time>
      </trkpt>
      <trkpt lat="47.19634" lon="5.59079">
        <ele>388</ele>
        <time>2012-04-05T16:56:09Z</time>
      </trkpt>
      <trkpt lat="47.1963" lon="5.59068">
        <ele>388</ele>
        <time>2012-04-05T16:56:16Z</time>
      </trkpt>
      <trkpt lat="47.19626" lon="5.59065">
        <ele>388</ele>
        <time>2012-04-05T16:56:18Z</time>
      </trkpt>
      <trkpt lat="47.19615" lon="5.59041">
        <ele>387</ele>
        <time>2012-04-05T16:56:31Z</time>
      </trkpt>
      <trkpt lat="47.19602" lon="5.59022">
        <ele>387</ele>
        <time>2012-04-05T16:56:46Z</time>
      </trkpt>
      <trkpt lat="47.19586" lon="5.59015">
        <ele>386</ele>
        <time>2012-04-05T16:57:01Z</time>
      </trkpt>
      <trkpt lat="47.19569" lon="5.58999">
        <ele>385</ele>
        <time>2012-04-05T16:57:19Z</time>
      </trkpt>
      <trkpt lat="47.19552" lon="5.58977">
        <ele>384</ele>
        <time>2012-04-05T16:57:38Z</time>
      </trkpt>
      <trkpt lat="47.19541" lon="5.58967">
        <ele>384</ele>
        <time>2012-04-05T16:57:51Z</time>
      </trkpt>
      <trkpt lat="47.19519" lon="5.58945">
        <ele>384</ele>
        <time>2012-04-05T16:58:12Z</time>
      </trkpt>
      <trkpt lat="47.19511" lon="5.58917">
        <ele>385</ele>
        <time>2012-04-05T16:58:30Z</time>
      </trkpt>
      <trkpt lat="47.1951" lon="5.58911">
        <ele>386</ele>
        <time>2012-04-05T16:58:32Z</time>
      </trkpt>
      <trkpt lat="47.19516" lon="5.5888">
        <ele>388</ele>
        <time>2012-04-05T16:58:50Z</time>
      </trkpt>
      <trkpt lat="47.19523" lon="5.58837">
        <ele>390</ele>
        <time>2012-04-05T16:59:13Z</time>
      </trkpt>
      <trkpt lat="47.19524" lon="5.58831">
        <ele>390</ele>
        <time>2012-04-05T16:59:18Z</time>
      </trkpt>
      <trkpt lat="47.19526" lon="5.58819">
        <ele>390</ele>
        <time>2012-04-05T16:59:26Z</time>
      </trkpt>
      <trkpt lat="47.19528" lon="5.58806">
        <ele>391</ele>
        <time>2012-04-05T16:59:35Z</time>
      </trkpt>
      <trkpt lat="47.19519" lon="5.58778">
        <ele>392</ele>
        <time>2012-04-05T16:59:52Z</time>
      </trkpt>
      <trkpt lat="47.19514" lon="5.58767">
        <ele>392</ele>
        <time>2012-04-05T16:59:58Z</time>
      </trkpt>
      <trkpt lat="47.19513" lon="5.58759">
        <ele>392</ele>
        <time>2012-04-05T17:00:02Z</time>
      </trkpt>
      <trkpt lat="47.19504" lon="5.58752">
        <ele>392</ele>
        <time>2012-04-05T17:00:10Z</time>
      </trkpt>
      <trkpt lat="47.19496" lon="5.58739">
        <ele>392</ele>
        <time>2012-04-05T17:00:24Z</time>
      </trkpt>
      <trkpt lat="47.1948" lon="5.58708">
        <ele>392</ele>
        <time>2012-04-05T17:00:45Z</time>
      </trkpt>
      <trkpt lat="47.19461" lon="5.58681">
        <ele>391</ele>
        <time>2012-04-05T17:01:05Z</time>
      </trkpt>
      <trkpt lat="47.19448" lon="5.58672">
        <ele>390</ele>
        <time>2012-04-05T17:01:18Z</time>
      </trkpt>
      <trkpt lat="47.19434" lon="5.58647">
        <ele>389</ele>
        <time>2012-04-05T17:01:36Z</time>
      </trkpt>
      <trkpt lat="47.19415" lon="5.58622">
        <ele>387</ele>
        <time>2012-04-05T17:01:57Z</time>
      </trkpt>
      <trkpt lat="47.19398" lon="5.58602">
        <ele>385</ele>
        <time>2012-04-05T17:02:16Z</time>
      </trkpt>
      <trkpt lat="47.19378" lon="5.58586">
        <ele>382</ele>
        <time>2012-04-05T17:02:36Z</time>
      </trkpt>
      <trkpt lat="47.19374" lon="5.58585">
        <ele>382</ele>
        <time>2012-04-05T17:02:39Z</time>
      </trkpt>
      <trkpt lat="47.19353" lon="5.58575">
        <ele>380</ele>
        <time>2012-04-05T17:02:55Z</time>
      </trkpt>
      <trkpt lat="47.19343" lon="5.58568">
        <ele>378</ele>
        <time>2012-04-05T17:03:07Z</time>
      </trkpt>
      <trkpt lat="47.19326" lon="5.58554">
        <ele>377</ele>
        <time>2012-04-05T17:03:23Z</time>
      </trkpt>
      <trkpt lat="47.1931" lon="5.58541">
        <ele>376</ele>
        <time>2012-04-05T17:03:40Z</time>
      </trkpt>
      <trkpt lat="47.19295" lon="5.5853">
        <ele>376</ele>
        <time>2012-04-05T17:03:52Z</time>
      </trkpt>
      <trkpt lat="47.19279" lon="5.58516">
        <ele>376</ele>
        <time>2012-04-05T17:04:08Z</time>
      </trkpt>
      <trkpt lat="47.19256" lon="5.58498">
        <ele>376</ele>
        <time>2012-04-05T17:04:27Z</time>
      </trkpt>
      <trkpt lat="47.19237" lon="5.58477">
        <ele>377</ele>
        <time>2012-04-05T17:04:49Z</time>
      </trkpt>
      <trkpt lat="47.19217" lon="5.58451">
        <ele>379</ele>
        <time>2012-04-05T17:05:11Z</time>
      </trkpt>
      <trkpt lat="47.19204" lon="5.58435">
        <ele>381</ele>
        <time>2012-04-05T17:05:26Z</time>
      </trkpt>
      <trkpt lat="47.19197" lon="5.58417">
        <ele>382</ele>
        <time>2012-04-05T17:05:39Z</time>
      </trkpt>
      <trkpt lat="47.19184" lon="5.58404">
        <ele>383</ele>
        <time>2012-04-05T17:05:54Z</time>
      </trkpt>
      <trkpt lat="47.19173" lon="5.58403">
        <ele>382</ele>
        <time>2012-04-05T17:06:06Z</time>
      </trkpt>
      <trkpt lat="47.1916" lon="5.5839">
        <ele>383</ele>
        <time>2012-04-05T17:06:22Z</time>
      </trkpt>
      <trkpt lat="47.19144" lon="5.58367">
        <ele>384</ele>
        <time>2012-04-05T17:06:41Z</time>
      </trkpt>
      <trkpt lat="47.19125" lon="5.58348">
        <ele>384</ele>
        <time>2012-04-05T17:06:57Z</time>
      </trkpt>
      <trkpt lat="47.19106" lon="5.58337">
        <ele>383</ele>
        <time>2012-04-05T17:07:12Z</time>
      </trkpt>
      <trkpt lat="47.19097" lon="5.58332">
        <ele>383</ele>
        <time>2012-04-05T17:07:21Z</time>
      </trkpt>
      <trkpt lat="47.19091" lon="5.5833">
        <ele>383</ele>
        <time>2012-04-05T17:07:25Z</time>
      </trkpt>
      <trkpt lat="47.19076" lon="5.58318">
        <ele>383</ele>
        <time>2012-04-05T17:07:38Z</time>
      </trkpt>
      <trkpt lat="47.19065" lon="5.58304">
        <ele>383</ele>
        <time>2012-04-05T17:07:52Z</time>
      </trkpt>
      <trkpt lat="47.19064" lon="5.58303">
        <ele>383</ele>
        <time>2012-04-05T17:07:53Z</time>
      </trkpt>
      <trkpt lat="47.19051" lon="5.58291">
        <ele>383</ele>
        <time>2012-04-05T17:08:05Z</time>
      </trkpt>
      <trkpt lat="47.19047" lon="5.58287">
        <ele>383</ele>
        <time>2012-04-05T17:08:10Z</time>
      </trkpt>
      <trkpt lat="47.19032" lon="5.58265">
        <ele>382</ele>
        <time>2012-04-05T17:08:26Z</time>
      </trkpt>
      <trkpt lat="47.19026" lon="5.58258">
        <ele>381</ele>
        <time>2012-04-05T17:08:32Z</time>
      </trkpt>
      <trkpt lat="47.19002" lon="5.5825">
        <ele>381</ele>
        <time>2012-04-05T17:08:52Z</time>
      </trkpt>
      <trkpt lat="47.18991" lon="5.58248">
        <ele>379</ele>
        <time>2012-04-05T17:09:03Z</time>
      </trkpt>
      <trkpt lat="47.18978" lon="5.58227">
        <ele>376</ele>
        <time>2012-04-05T17:09:21Z</time>
      </trkpt>
      <trkpt lat="47.18959" lon="5.58211">
        <ele>373</ele>
        <time>2012-04-05T17:09:39Z</time>
      </trkpt>
      <trkpt lat="47.18947" lon="5.58196">
        <ele>372</ele>
        <time>2012-04-05T17:09:53Z</time>
      </trkpt>
      <trkpt lat="47.1893" lon="5.58179">
        <ele>370</ele>
        <time>2012-04-05T17:10:10Z</time>
      </trkpt>
      <trkpt lat="47.18911" lon="5.58163">
        <ele>367</ele>
        <time>2012-04-05T17:10:28Z</time>
      </trkpt>
      <trkpt lat="47.18894" lon="5.58143">
        <ele>366</ele>
        <time>2012-04-05T17:10:39Z</time>
      </trkpt>
      <trkpt lat="47.18883" lon="5.58131">
        <ele>364</ele>
        <time>2012-04-05T17:10:49Z</time>
      </trkpt>
      <trkpt lat="47.18864" lon="5.58118">
        <ele>361</ele>
        <time>2012-04-05T17:11:10Z</time>
      </trkpt>
      <trkpt lat="47.18842" lon="5.581">
        <ele>358</ele>
        <time>2012-04-05T17:11:34Z</time>
      </trkpt>
      <trkpt lat="47.18826" lon="5.58087">
        <ele>356</ele>
        <time>2012-04-05T17:11:53Z</time>
      </trkpt>
      <trkpt lat="47.18801" lon="5.58061">
        <ele>353</ele>
        <time>2012-04-05T17:12:15Z</time>
      </trkpt>
      <trkpt lat="47.18783" lon="5.58041">
        <ele>351</ele>
        <time>2012-04-05T17:12:35Z</time>
      </trkpt>
      <trkpt lat="47.18758" lon="5.58005">
        <ele>350</ele>
        <time>2012-04-05T17:12:53Z</time>
      </trkpt>
      <trkpt lat="47.18757" lon="5.58003">
        <ele>350</ele>
        <time>2012-04-05T17:12:54Z</time>
      </trkpt>
      <trkpt lat="47.18735" lon="5.57986">
        <ele>346</ele>
        <time>2012-04-05T17:13:12Z</time>
      </trkpt>
      <trkpt lat="47.18719" lon="5.57973">
        <ele>343</ele>
        <time>2012-04-05T17:13:28Z</time>
      </trkpt>
      <trkpt lat="47.18709" lon="5.57958">
        <ele>341</ele>
        <time>2012-04-05T17:13:39Z</time>
      </trkpt>
      <trkpt lat="47.18693" lon="5.57947">
        <ele>339</ele>
        <time>2012-04-05T17:13:52Z</time>
      </trkpt>
      <trkpt lat="47.18677" lon="5.57926">
        <ele>337</ele>
        <time>2012-04-05T17:14:11Z</time>
      </trkpt>
      <trkpt lat="47.18659" lon="5.57911">
        <ele>334</ele>
        <time>2012-04-05T17:14:30Z</time>
      </trkpt>
      <trkpt lat="47.18653" lon="5.57904">
        <ele>333</ele>
        <time>2012-04-05T17:14:35Z</time>
      </trkpt>
      <trkpt lat="47.18642" lon="5.57889">
        <ele>331</ele>
        <time>2012-04-05T17:14:51Z</time>
      </trkpt>
      <trkpt lat="47.18623" lon="5.57876">
        <ele>330</ele>
        <time>2012-04-05T17:15:08Z</time>
      </trkpt>
      <trkpt lat="47.18617" lon="5.5787">
        <ele>329</ele>
        <time>2012-04-05T17:15:16Z</time>
      </trkpt>
      <trkpt lat="47.18599" lon="5.57854">
        <ele>328</ele>
        <time>2012-04-05T17:15:32Z</time>
      </trkpt>
      <trkpt lat="47.18578" lon="5.57831">
        <ele>327</ele>
        <time>2012-04-05T17:15:50Z</time>
      </trkpt>
      <trkpt lat="47.18565" lon="5.57817">
        <ele>326</ele>
        <time>2012-04-05T17:16:05Z</time>
      </trkpt>
      <trkpt lat="47.18557" lon="5.57799">
        <ele>326</ele>
        <time>2012-04-05T17:16:22Z</time>
      </trkpt>
      <trkpt lat="47.18554" lon="5.5779">
        <ele>326</ele>
        <time>2012-04-05T17:16:28Z</time>
      </trkpt>
      <trkpt lat="47.18541" lon="5.57766">
        <ele>325</ele>
        <time>2012-04-05T17:16:45Z</time>
      </trkpt>
      <trkpt lat="47.18527" lon="5.57748">
        <ele>323</ele>
        <time>2012-04-05T17:16:59Z</time>
      </trkpt>
      <trkpt lat="47.18512" lon="5.57729">
        <ele>320</ele>
        <time>2012-04-05T17:17:17Z</time>
      </trkpt>
      <trkpt lat="47.18509" lon="5.57726">
        <ele>319</ele>
        <time>2012-04-05T17:17:19Z</time>
      </trkpt>
      <trkpt lat="47.18494" lon="5.57708">
        <ele>316</ele>
        <time>2012-04-05T17:17:38Z</time>
      </trkpt>
      <trkpt lat="47.18481" lon="5.57697">
        <ele>314</ele>
        <time>2012-04-05T17:17:48Z</time>
      </trkpt>
      <trkpt lat="47.18469" lon="5.57679">
        <ele>312</ele>
        <time>2012-04-05T17:18:05Z</time>
      </trkpt>
      <trkpt lat="47.18455" lon="5.57669">
        <ele>309</ele>
        <time>2012-04-05T17:18:20Z</time>
      </trkpt>
      <trkpt lat="47.18443" lon="5.5766">
        <ele>305</ele>
        <time>2012-04-05T17:18:33Z</time>
      </trkpt>
      <trkpt lat="47.18432" lon="5.57648">
        <ele>302</ele>
        <time>2012-04-05T17:18:45Z</time>
      </trkpt>
      <trkpt lat="47.18422" lon="5.5764">
        <ele>299</ele>
        <time>2012-04-05T17:18:57Z</time>
      </trkpt>
      <trkpt lat="47.18415" lon="5.57638">
        <ele>298</ele>
        <time>2012-04-05T17:19:02Z</time>
      </trkpt>
      <trkpt lat="47.18404" lon="5.57626">
        <ele>295</ele>
        <time>2012-04-05T17:19:17Z</time>
      </trkpt>
      <trkpt lat="47.18396" lon="5.57624">
        <ele>295</ele>
        <time>2012-04-05T17:19:23Z</time>
      </trkpt>
      <trkpt lat="47.1838" lon="5.57626">
        <ele>293</ele>
        <time>2012-04-05T17:19:39Z</time>
      </trkpt>
      <trkpt lat="47.18364" lon="5.57638">
        <ele>290</ele>
        <time>2012-04-05T17:19:57Z</time>
      </trkpt>
      <trkpt lat="47.1836" lon="5.57652">
        <ele>289</ele>
        <time>2012-04-05T17:20:07Z</time>
      </trkpt>
      <trkpt lat="47.18361" lon="5.57671">
        <ele>288</ele>
        <time>2012-04-05T17:20:18Z</time>
      </trkpt>
      <trkpt lat="47.18363" lon="5.57691">
        <ele>287</ele>
        <time>2012-04-05T17:20:27Z</time>
      </trkpt>
      <trkpt lat="47.18373" lon="5.5772">
        <ele>285</ele>
        <time>2012-04-05T17:20:44Z</time>
      </trkpt>
      <trkpt lat="47.18379" lon="5.57762">
        <ele>284</ele>
        <time>2012-04-05T17:21:08Z</time>
      </trkpt>
      <trkpt lat="47.1838" lon="5.57785">
        <ele>284</ele>
        <time>2012-04-05T17:21:21Z</time>
      </trkpt>
      <trkpt lat="47.1838" lon="5.57789">
        <ele>283</ele>
        <time>2012-04-05T17:21:23Z</time>
      </trkpt>
      <trkpt lat="47.18375" lon="5.57818">
        <ele>282</ele>
        <time>2012-04-05T17:21:41Z</time>
      </trkpt>
      <trkpt lat="47.18364" lon="5.5785">
        <ele>280</ele>
        <time>2012-04-05T17:21:57Z</time>
      </trkpt>
      <trkpt lat="47.18356" lon="5.57877">
        <ele>277</ele>
        <time>2012-04-05T17:22:16Z</time>
      </trkpt>
      <trkpt lat="47.18347" lon="5.57894">
        <ele>276</ele>
        <time>2012-04-05T17:22:27Z</time>
      </trkpt>
      <trkpt lat="47.18345" lon="5.57895">
        <ele>276</ele>
        <time>2012-04-05T17:22:28Z</time>
      </trkpt>
      <trkpt lat="47.18333" lon="5.57927">
        <ele>273</ele>
        <time>2012-04-05T17:22:48Z</time>
      </trkpt>
      <trkpt lat="47.18319" lon="5.57962">
        <ele>270</ele>
        <time>2012-04-05T17:23:07Z</time>
      </trkpt>
      <trkpt lat="47.18304" lon="5.57988">
        <ele>269</ele>
        <time>2012-04-05T17:23:26Z</time>
      </trkpt>
      <trkpt lat="47.18289" lon="5.58013">
        <ele>268</ele>
        <time>2012-04-05T17:23:41Z</time>
      </trkpt>
      <trkpt lat="47.18267" lon="5.58039">
        <ele>267</ele>
        <time>2012-04-05T17:24:02Z</time>
      </trkpt>
      <trkpt lat="47.18244" lon="5.58063">
        <ele>267</ele>
        <time>2012-04-05T17:24:23Z</time>
      </trkpt>
      <trkpt lat="47.18219" lon="5.58082">
        <ele>266</ele>
        <time>2012-04-05T17:24:46Z</time>
      </trkpt>
      <trkpt lat="47.18199" lon="5.58098">
        <ele>265</ele>
        <time>2012-04-05T17:25:04Z</time>
      </trkpt>
      <trkpt lat="47.18196" lon="5.58102">
        <ele>265</ele>
        <time>2012-04-05T17:25:08Z</time>
      </trkpt>
      <trkpt lat="47.18182" lon="5.58127">
        <ele>264</ele>
        <time>2012-04-05T17:25:24Z</time>
      </trkpt>
      <trkpt lat="47.1817" lon="5.58153">
        <ele>263</ele>
        <time>2012-04-05T17:25:41Z</time>
      </trkpt>
      <trkpt lat="47.18157" lon="5.58181">
        <ele>262</ele>
        <time>2012-04-05T17:25:58Z</time>
      </trkpt>
      <trkpt lat="47.18144" lon="5.58205">
        <ele>262</ele>
        <time>2012-04-05T17:26:13Z</time>
      </trkpt>
      <trkpt lat="47.18128" lon="5.58235">
        <ele>260</ele>
        <time>2012-04-05T17:26:32Z</time>
      </trkpt>
      <trkpt lat="47.18125" lon="5.58241">
        <ele>259</ele>
        <time>2012-04-05T17:26:36Z</time>
      </trkpt>
      <trkpt lat="47.18121" lon="5.58248">
        <ele>259</ele>
        <time>2012-04-05T17:26:41Z</time>
      </trkpt>
      <trkpt lat="47.18104" lon="5.58284">
        <ele>255</ele>
        <time>2012-04-05T17:27:03Z</time>
      </trkpt>
      <trkpt lat="47.18088" lon="5.58314">
        <ele>253</ele>
        <time>2012-04-05T17:27:22Z</time>
      </trkpt>
      <trkpt lat="47.1808" lon="5.58291">
        <ele>253</ele>
        <time>2012-04-05T17:27:34Z</time>
      </trkpt>
      <trkpt lat="47.18067" lon="5.5827">
        <ele>253</ele>
        <time>2012-04-05T17:27:50Z</time>
      </trkpt>
      <trkpt lat="47.18055" lon="5.5825">
        <ele>254</ele>
        <time>2012-04-05T17:28:03Z</time>
      </trkpt>
      <trkpt lat="47.18051" lon="5.58243">
        <ele>254</ele>
        <time>2012-04-05T17:28:08Z</time>
      </trkpt>
      <trkpt lat="47.18045" lon="5.58235">
        <ele>254</ele>
        <time>2012-04-05T17:28:14Z</time>
      </trkpt>
      <trkpt lat="47.18041" lon="5.58225">
        <ele>254</ele>
        <time>2012-04-05T17:28:20Z</time>
      </trkpt>
      <trkpt lat="47.18039" lon="5.58213">
        <ele>254</ele>
        <time>2012-04-05T17:28:27Z</time>
      </trkpt>
      <trkpt lat="47.1804" lon="5.58203">
        <ele>254</ele>
        <time>2012-04-05T17:28:36Z</time>
      </trkpt>
      <trkpt lat="47.18042" lon="5.58202">
        <ele>254</ele>
        <time>2012-04-05T17:28:38Z</time>
      </trkpt>
      <trkpt lat="47.18059" lon="5.58182">
        <ele>255</ele>
        <time>2012-04-05T17:28:54Z</time>
      </trkpt>
      <trkpt lat="47.18067" lon="5.58179">
        <ele>256</ele>
        <time>2012-04-05T17:29:05Z</time>
      </trkpt>
      <trkpt lat="47.18068" lon="5.58179">
        <ele>257</ele>
        <time>2012-04-05T17:29:35Z</time>
      </trkpt>
    </trkseg>
  </trk>
</gpx>